<?xml version="1.0" encoding="UTF-8" standalone="no" ?>
<gpx xmlns="http://www.topografix.com/GPX/1/1" xmlns:xsi="http://www.w3.org/2001/XMLSchema-instance" xsi:schemaLocation="http://www.topografix.com/GPX/1/1 http://www.topografix.com/GPX/1/1/gpx.xsd" version="1.1" creator="VisuGPX - https://www.visugpx.com">
  <metadata>
    <name>Tour du thannerhubel</name>
    <desc><![CDATA[Tour du Thannerhubel en partant du Hundsruck]]></desc>
  </metadata>
  <trk>
    <name><![CDATA[20-OCT-18 18:43:40]]></name>
    <trkseg>
      <trkpt lat="47.80558" lon="7.04099">
        <ele>593.75</ele>
        <time>2018-10-20T13:41:02Z</time>
      </trkpt>
      <trkpt lat="47.80558" lon="7.041">
        <ele>593.75</ele>
        <time>2018-10-20T13:41:03Z</time>
      </trkpt>
      <trkpt lat="47.80556" lon="7.04104">
        <ele>600</ele>
        <time>2018-10-20T13:41:07Z</time>
      </trkpt>
      <trkpt lat="47.80558" lon="7.04106">
        <ele>607.21</ele>
        <time>2018-10-20T13:41:09Z</time>
      </trkpt>
      <trkpt lat="47.8056" lon="7.04107">
        <ele>613.46</ele>
        <time>2018-10-20T13:41:10Z</time>
      </trkpt>
      <trkpt lat="47.80561" lon="7.04107">
        <ele>617.78</ele>
        <time>2018-10-20T13:41:11Z</time>
      </trkpt>
      <trkpt lat="47.80562" lon="7.04109">
        <ele>627.88</ele>
        <time>2018-10-20T13:41:13Z</time>
      </trkpt>
      <trkpt lat="47.80563" lon="7.04111">
        <ele>629.32</ele>
        <time>2018-10-20T13:41:15Z</time>
      </trkpt>
      <trkpt lat="47.80564" lon="7.04114">
        <ele>633.17</ele>
        <time>2018-10-20T13:41:17Z</time>
      </trkpt>
      <trkpt lat="47.80565" lon="7.04116">
        <ele>636.53</ele>
        <time>2018-10-20T13:41:18Z</time>
      </trkpt>
      <trkpt lat="47.80565" lon="7.04117">
        <ele>639.89</ele>
        <time>2018-10-20T13:41:19Z</time>
      </trkpt>
      <trkpt lat="47.80567" lon="7.04121">
        <ele>646.62</ele>
        <time>2018-10-20T13:41:21Z</time>
      </trkpt>
      <trkpt lat="47.80568" lon="7.04123">
        <ele>649.99</ele>
        <time>2018-10-20T13:41:22Z</time>
      </trkpt>
      <trkpt lat="47.80569" lon="7.04124">
        <ele>653.35</ele>
        <time>2018-10-20T13:41:23Z</time>
      </trkpt>
      <trkpt lat="47.8057" lon="7.04127">
        <ele>659.12</ele>
        <time>2018-10-20T13:41:25Z</time>
      </trkpt>
      <trkpt lat="47.80572" lon="7.0413">
        <ele>663.45</ele>
        <time>2018-10-20T13:41:27Z</time>
      </trkpt>
      <trkpt lat="47.80573" lon="7.04132">
        <ele>666.81</ele>
        <time>2018-10-20T13:41:28Z</time>
      </trkpt>
      <trkpt lat="47.80575" lon="7.04137">
        <ele>671.62</ele>
        <time>2018-10-20T13:41:30Z</time>
      </trkpt>
      <trkpt lat="47.80576" lon="7.04141">
        <ele>675.94</ele>
        <time>2018-10-20T13:41:32Z</time>
      </trkpt>
      <trkpt lat="47.80578" lon="7.04145">
        <ele>680.75</ele>
        <time>2018-10-20T13:41:34Z</time>
      </trkpt>
      <trkpt lat="47.8058" lon="7.04148">
        <ele>685.08</ele>
        <time>2018-10-20T13:41:36Z</time>
      </trkpt>
      <trkpt lat="47.80582" lon="7.04151">
        <ele>687.96</ele>
        <time>2018-10-20T13:41:38Z</time>
      </trkpt>
      <trkpt lat="47.80584" lon="7.04155">
        <ele>692.77</ele>
        <time>2018-10-20T13:41:40Z</time>
      </trkpt>
      <trkpt lat="47.80586" lon="7.04158">
        <ele>695.65</ele>
        <time>2018-10-20T13:41:42Z</time>
      </trkpt>
      <trkpt lat="47.80588" lon="7.0416">
        <ele>699.02</ele>
        <time>2018-10-20T13:41:44Z</time>
      </trkpt>
      <trkpt lat="47.80591" lon="7.04165">
        <ele>702.38</ele>
        <time>2018-10-20T13:41:47Z</time>
      </trkpt>
      <trkpt lat="47.80593" lon="7.04168">
        <ele>705.75</ele>
        <time>2018-10-20T13:41:49Z</time>
      </trkpt>
      <trkpt lat="47.80598" lon="7.04178">
        <ele>710.07</ele>
        <time>2018-10-20T13:41:53Z</time>
      </trkpt>
      <trkpt lat="47.80601" lon="7.04186">
        <ele>713.44</ele>
        <time>2018-10-20T13:41:56Z</time>
      </trkpt>
      <trkpt lat="47.80605" lon="7.04193">
        <ele>716.8</ele>
        <time>2018-10-20T13:41:59Z</time>
      </trkpt>
      <trkpt lat="47.80609" lon="7.04199">
        <ele>719.68</ele>
        <time>2018-10-20T13:42:03Z</time>
      </trkpt>
      <trkpt lat="47.80611" lon="7.04204">
        <ele>723.05</ele>
        <time>2018-10-20T13:42:07Z</time>
      </trkpt>
      <trkpt lat="47.80612" lon="7.04207">
        <ele>725.93</ele>
        <time>2018-10-20T13:42:10Z</time>
      </trkpt>
      <trkpt lat="47.80612" lon="7.04208">
        <ele>729.3</ele>
        <time>2018-10-20T13:42:16Z</time>
      </trkpt>
      <trkpt lat="47.80611" lon="7.04208">
        <ele>730.26</ele>
        <time>2018-10-20T13:42:18Z</time>
      </trkpt>
      <trkpt lat="47.80612" lon="7.04211">
        <ele>733.14</ele>
        <time>2018-10-20T13:42:23Z</time>
      </trkpt>
      <trkpt lat="47.80612" lon="7.04212">
        <ele>733.14</ele>
        <time>2018-10-20T13:42:24Z</time>
      </trkpt>
      <trkpt lat="47.80615" lon="7.04216">
        <ele>736.51</ele>
        <time>2018-10-20T13:42:29Z</time>
      </trkpt>
      <trkpt lat="47.80615" lon="7.04217">
        <ele>736.51</ele>
        <time>2018-10-20T13:42:30Z</time>
      </trkpt>
      <trkpt lat="47.80618" lon="7.04222">
        <ele>739.39</ele>
        <time>2018-10-20T13:42:34Z</time>
      </trkpt>
      <trkpt lat="47.8062" lon="7.04226">
        <ele>741.31</ele>
        <time>2018-10-20T13:42:39Z</time>
      </trkpt>
      <trkpt lat="47.80626" lon="7.04235">
        <ele>744.2</ele>
        <time>2018-10-20T13:42:47Z</time>
      </trkpt>
      <trkpt lat="47.80632" lon="7.04241">
        <ele>746.12</ele>
        <time>2018-10-20T13:42:54Z</time>
      </trkpt>
      <trkpt lat="47.80634" lon="7.04242">
        <ele>746.6</ele>
        <time>2018-10-20T13:42:55Z</time>
      </trkpt>
      <trkpt lat="47.80651" lon="7.04246">
        <ele>747.56</ele>
        <time>2018-10-20T13:43:10Z</time>
      </trkpt>
      <trkpt lat="47.80655" lon="7.04244">
        <ele>749.97</ele>
        <time>2018-10-20T13:43:14Z</time>
      </trkpt>
      <trkpt lat="47.80657" lon="7.04243">
        <ele>748.52</ele>
        <time>2018-10-20T13:43:16Z</time>
      </trkpt>
      <trkpt lat="47.8066" lon="7.04242">
        <ele>747.56</ele>
        <time>2018-10-20T13:43:18Z</time>
      </trkpt>
      <trkpt lat="47.80661" lon="7.04242">
        <ele>750.45</ele>
        <time>2018-10-20T13:43:20Z</time>
      </trkpt>
      <trkpt lat="47.80675" lon="7.04236">
        <ele>752.85</ele>
        <time>2018-10-20T13:43:39Z</time>
      </trkpt>
      <trkpt lat="47.80683" lon="7.04229">
        <ele>753.81</ele>
        <time>2018-10-20T13:43:48Z</time>
      </trkpt>
      <trkpt lat="47.80698" lon="7.0422">
        <ele>754.77</ele>
        <time>2018-10-20T13:44:04Z</time>
      </trkpt>
      <trkpt lat="47.80704" lon="7.04212">
        <ele>757.66</ele>
        <time>2018-10-20T13:44:10Z</time>
      </trkpt>
      <trkpt lat="47.80712" lon="7.042">
        <ele>761.02</ele>
        <time>2018-10-20T13:44:23Z</time>
      </trkpt>
      <trkpt lat="47.80713" lon="7.04199">
        <ele>760.54</ele>
        <time>2018-10-20T13:44:24Z</time>
      </trkpt>
      <trkpt lat="47.80717" lon="7.0419">
        <ele>759.1</ele>
        <time>2018-10-20T13:44:32Z</time>
      </trkpt>
      <trkpt lat="47.80719" lon="7.04186">
        <ele>762.46</ele>
        <time>2018-10-20T13:44:35Z</time>
      </trkpt>
      <trkpt lat="47.80733" lon="7.04165">
        <ele>764.39</ele>
        <time>2018-10-20T13:44:52Z</time>
      </trkpt>
      <trkpt lat="47.80734" lon="7.04162">
        <ele>763.42</ele>
        <time>2018-10-20T13:44:54Z</time>
      </trkpt>
      <trkpt lat="47.80738" lon="7.04145">
        <ele>765.35</ele>
        <time>2018-10-20T13:45:09Z</time>
      </trkpt>
      <trkpt lat="47.80743" lon="7.04121">
        <ele>768.23</ele>
        <time>2018-10-20T13:45:27Z</time>
      </trkpt>
      <trkpt lat="47.80743" lon="7.0412">
        <ele>768.23</ele>
        <time>2018-10-20T13:45:28Z</time>
      </trkpt>
      <trkpt lat="47.80749" lon="7.04113">
        <ele>769.19</ele>
        <time>2018-10-20T13:45:35Z</time>
      </trkpt>
      <trkpt lat="47.80759" lon="7.04092">
        <ele>770.63</ele>
        <time>2018-10-20T13:45:54Z</time>
      </trkpt>
      <trkpt lat="47.80761" lon="7.0409">
        <ele>772.08</ele>
        <time>2018-10-20T13:45:56Z</time>
      </trkpt>
      <trkpt lat="47.80774" lon="7.04069">
        <ele>774.48</ele>
        <time>2018-10-20T13:46:16Z</time>
      </trkpt>
      <trkpt lat="47.80779" lon="7.04065">
        <ele>774.48</ele>
        <time>2018-10-20T13:46:21Z</time>
      </trkpt>
      <trkpt lat="47.80784" lon="7.04057">
        <ele>775.92</ele>
        <time>2018-10-20T13:46:28Z</time>
      </trkpt>
      <trkpt lat="47.8079" lon="7.04044">
        <ele>777.36</ele>
        <time>2018-10-20T13:46:42Z</time>
      </trkpt>
      <trkpt lat="47.80801" lon="7.04039">
        <ele>779.29</ele>
        <time>2018-10-20T13:46:58Z</time>
      </trkpt>
      <trkpt lat="47.8081" lon="7.04025">
        <ele>781.21</ele>
        <time>2018-10-20T13:47:17Z</time>
      </trkpt>
      <trkpt lat="47.80808" lon="7.04005">
        <ele>782.17</ele>
        <time>2018-10-20T13:47:27Z</time>
      </trkpt>
      <trkpt lat="47.80805" lon="7.03998">
        <ele>782.17</ele>
        <time>2018-10-20T13:47:30Z</time>
      </trkpt>
      <trkpt lat="47.80791" lon="7.03965">
        <ele>784.57</ele>
        <time>2018-10-20T13:47:41Z</time>
      </trkpt>
      <trkpt lat="47.80781" lon="7.03947">
        <ele>781.69</ele>
        <time>2018-10-20T13:47:50Z</time>
      </trkpt>
      <trkpt lat="47.80779" lon="7.03944">
        <ele>785.05</ele>
        <time>2018-10-20T13:47:52Z</time>
      </trkpt>
      <trkpt lat="47.80764" lon="7.03922">
        <ele>785.53</ele>
        <time>2018-10-20T13:48:07Z</time>
      </trkpt>
      <trkpt lat="47.80762" lon="7.03901">
        <ele>787.46</ele>
        <time>2018-10-20T13:48:22Z</time>
      </trkpt>
      <trkpt lat="47.80763" lon="7.03897">
        <ele>786.02</ele>
        <time>2018-10-20T13:48:25Z</time>
      </trkpt>
      <trkpt lat="47.80762" lon="7.03888">
        <ele>789.86</ele>
        <time>2018-10-20T13:48:32Z</time>
      </trkpt>
      <trkpt lat="47.80761" lon="7.03886">
        <ele>789.38</ele>
        <time>2018-10-20T13:48:33Z</time>
      </trkpt>
      <trkpt lat="47.80754" lon="7.03855">
        <ele>790.34</ele>
        <time>2018-10-20T13:48:49Z</time>
      </trkpt>
      <trkpt lat="47.80754" lon="7.03851">
        <ele>791.78</ele>
        <time>2018-10-20T13:48:51Z</time>
      </trkpt>
      <trkpt lat="47.80757" lon="7.03832">
        <ele>793.22</ele>
        <time>2018-10-20T13:49:04Z</time>
      </trkpt>
      <trkpt lat="47.80758" lon="7.03831">
        <ele>795.15</ele>
        <time>2018-10-20T13:49:05Z</time>
      </trkpt>
      <trkpt lat="47.80762" lon="7.03827">
        <ele>793.22</ele>
        <time>2018-10-20T13:49:08Z</time>
      </trkpt>
      <trkpt lat="47.80765" lon="7.03825">
        <ele>794.67</ele>
        <time>2018-10-20T13:49:10Z</time>
      </trkpt>
      <trkpt lat="47.80766" lon="7.03824">
        <ele>793.71</ele>
        <time>2018-10-20T13:49:11Z</time>
      </trkpt>
      <trkpt lat="47.80769" lon="7.03822">
        <ele>796.11</ele>
        <time>2018-10-20T13:49:13Z</time>
      </trkpt>
      <trkpt lat="47.80789" lon="7.03808">
        <ele>795.63</ele>
        <time>2018-10-20T13:49:31Z</time>
      </trkpt>
      <trkpt lat="47.80806" lon="7.03792">
        <ele>798.03</ele>
        <time>2018-10-20T13:49:48Z</time>
      </trkpt>
      <trkpt lat="47.80807" lon="7.03792">
        <ele>798.51</ele>
        <time>2018-10-20T13:49:49Z</time>
      </trkpt>
      <trkpt lat="47.80808" lon="7.0379">
        <ele>797.07</ele>
        <time>2018-10-20T13:49:51Z</time>
      </trkpt>
      <trkpt lat="47.80811" lon="7.03782">
        <ele>801.4</ele>
        <time>2018-10-20T13:50:00Z</time>
      </trkpt>
      <trkpt lat="47.80813" lon="7.03778">
        <ele>800.92</ele>
        <time>2018-10-20T13:50:04Z</time>
      </trkpt>
      <trkpt lat="47.80815" lon="7.03773">
        <ele>800.44</ele>
        <time>2018-10-20T13:50:07Z</time>
      </trkpt>
      <trkpt lat="47.80821" lon="7.03768">
        <ele>800.44</ele>
        <time>2018-10-20T13:50:11Z</time>
      </trkpt>
      <trkpt lat="47.8085" lon="7.03756">
        <ele>802.36</ele>
        <time>2018-10-20T13:50:28Z</time>
      </trkpt>
      <trkpt lat="47.80868" lon="7.03751">
        <ele>802.36</ele>
        <time>2018-10-20T13:50:40Z</time>
      </trkpt>
      <trkpt lat="47.80875" lon="7.0375">
        <ele>804.28</ele>
        <time>2018-10-20T13:50:45Z</time>
      </trkpt>
      <trkpt lat="47.80887" lon="7.03743">
        <ele>804.28</ele>
        <time>2018-10-20T13:51:00Z</time>
      </trkpt>
      <trkpt lat="47.80886" lon="7.03743">
        <ele>807.64</ele>
        <time>2018-10-20T13:51:01Z</time>
      </trkpt>
      <trkpt lat="47.80885" lon="7.03742">
        <ele>804.28</ele>
        <time>2018-10-20T13:51:03Z</time>
      </trkpt>
      <trkpt lat="47.80909" lon="7.03751">
        <ele>807.64</ele>
        <time>2018-10-20T13:51:06Z</time>
      </trkpt>
      <trkpt lat="47.80935" lon="7.03759">
        <ele>805.72</ele>
        <time>2018-10-20T13:51:13Z</time>
      </trkpt>
      <trkpt lat="47.8094" lon="7.03761">
        <ele>807.16</ele>
        <time>2018-10-20T13:51:15Z</time>
      </trkpt>
      <trkpt lat="47.80952" lon="7.03763">
        <ele>810.53</ele>
        <time>2018-10-20T13:51:24Z</time>
      </trkpt>
      <trkpt lat="47.80978" lon="7.03769">
        <ele>809.09</ele>
        <time>2018-10-20T13:51:41Z</time>
      </trkpt>
      <trkpt lat="47.8098" lon="7.03769">
        <ele>811.49</ele>
        <time>2018-10-20T13:51:43Z</time>
      </trkpt>
      <trkpt lat="47.80988" lon="7.03764">
        <ele>811.97</ele>
        <time>2018-10-20T13:51:57Z</time>
      </trkpt>
      <trkpt lat="47.81" lon="7.03769">
        <ele>813.89</ele>
        <time>2018-10-20T13:52:09Z</time>
      </trkpt>
      <trkpt lat="47.81023" lon="7.03767">
        <ele>814.85</ele>
        <time>2018-10-20T13:52:27Z</time>
      </trkpt>
      <trkpt lat="47.81031" lon="7.03766">
        <ele>819.66</ele>
        <time>2018-10-20T13:52:34Z</time>
      </trkpt>
      <trkpt lat="47.81033" lon="7.03765">
        <ele>816.3</ele>
        <time>2018-10-20T13:52:35Z</time>
      </trkpt>
      <trkpt lat="47.81044" lon="7.03753">
        <ele>821.1</ele>
        <time>2018-10-20T13:52:51Z</time>
      </trkpt>
      <trkpt lat="47.81044" lon="7.0375">
        <ele>817.74</ele>
        <time>2018-10-20T13:52:53Z</time>
      </trkpt>
      <trkpt lat="47.81043" lon="7.03736">
        <ele>821.58</ele>
        <time>2018-10-20T13:53:03Z</time>
      </trkpt>
      <trkpt lat="47.81041" lon="7.03728">
        <ele>821.1</ele>
        <time>2018-10-20T13:53:09Z</time>
      </trkpt>
      <trkpt lat="47.81039" lon="7.03725">
        <ele>820.14</ele>
        <time>2018-10-20T13:53:11Z</time>
      </trkpt>
      <trkpt lat="47.81036" lon="7.03721">
        <ele>822.06</ele>
        <time>2018-10-20T13:53:13Z</time>
      </trkpt>
      <trkpt lat="47.81025" lon="7.03707">
        <ele>822.55</ele>
        <time>2018-10-20T13:53:19Z</time>
      </trkpt>
      <trkpt lat="47.80997" lon="7.03674">
        <ele>824.95</ele>
        <time>2018-10-20T13:53:36Z</time>
      </trkpt>
      <trkpt lat="47.80996" lon="7.03672">
        <ele>823.51</ele>
        <time>2018-10-20T13:53:37Z</time>
      </trkpt>
      <trkpt lat="47.80993" lon="7.03669">
        <ele>821.58</ele>
        <time>2018-10-20T13:53:39Z</time>
      </trkpt>
      <trkpt lat="47.80991" lon="7.03667">
        <ele>824.47</ele>
        <time>2018-10-20T13:53:40Z</time>
      </trkpt>
      <trkpt lat="47.80988" lon="7.03663">
        <ele>823.99</ele>
        <time>2018-10-20T13:53:42Z</time>
      </trkpt>
      <trkpt lat="47.80983" lon="7.03655">
        <ele>825.43</ele>
        <time>2018-10-20T13:53:46Z</time>
      </trkpt>
      <trkpt lat="47.80982" lon="7.03651">
        <ele>824.47</ele>
        <time>2018-10-20T13:53:48Z</time>
      </trkpt>
      <trkpt lat="47.80979" lon="7.03644">
        <ele>826.39</ele>
        <time>2018-10-20T13:53:52Z</time>
      </trkpt>
      <trkpt lat="47.80977" lon="7.03637">
        <ele>826.87</ele>
        <time>2018-10-20T13:53:56Z</time>
      </trkpt>
      <trkpt lat="47.80977" lon="7.03635">
        <ele>827.83</ele>
        <time>2018-10-20T13:53:57Z</time>
      </trkpt>
      <trkpt lat="47.80976" lon="7.03633">
        <ele>826.39</ele>
        <time>2018-10-20T13:53:58Z</time>
      </trkpt>
      <trkpt lat="47.80975" lon="7.03627">
        <ele>828.31</ele>
        <time>2018-10-20T13:54:02Z</time>
      </trkpt>
      <trkpt lat="47.80975" lon="7.03623">
        <ele>826.39</ele>
        <time>2018-10-20T13:54:04Z</time>
      </trkpt>
      <trkpt lat="47.80974" lon="7.03617">
        <ele>827.35</ele>
        <time>2018-10-20T13:54:07Z</time>
      </trkpt>
      <trkpt lat="47.80974" lon="7.03615">
        <ele>829.27</ele>
        <time>2018-10-20T13:54:08Z</time>
      </trkpt>
      <trkpt lat="47.80973" lon="7.03605">
        <ele>829.76</ele>
        <time>2018-10-20T13:54:14Z</time>
      </trkpt>
      <trkpt lat="47.80973" lon="7.03599">
        <ele>830.72</ele>
        <time>2018-10-20T13:54:19Z</time>
      </trkpt>
      <trkpt lat="47.80973" lon="7.03598">
        <ele>829.27</ele>
        <time>2018-10-20T13:54:20Z</time>
      </trkpt>
      <trkpt lat="47.80973" lon="7.03591">
        <ele>831.2</ele>
        <time>2018-10-20T13:54:24Z</time>
      </trkpt>
      <trkpt lat="47.80974" lon="7.03585">
        <ele>831.68</ele>
        <time>2018-10-20T13:54:28Z</time>
      </trkpt>
      <trkpt lat="47.80972" lon="7.0358">
        <ele>832.16</ele>
        <time>2018-10-20T13:54:32Z</time>
      </trkpt>
      <trkpt lat="47.80978" lon="7.03559">
        <ele>832.16</ele>
        <time>2018-10-20T13:54:38Z</time>
      </trkpt>
      <trkpt lat="47.80983" lon="7.03549">
        <ele>835.04</ele>
        <time>2018-10-20T13:54:55Z</time>
      </trkpt>
      <trkpt lat="47.80982" lon="7.03546">
        <ele>836.48</ele>
        <time>2018-10-20T13:54:59Z</time>
      </trkpt>
      <trkpt lat="47.80975" lon="7.03534">
        <ele>838.89</ele>
        <time>2018-10-20T13:55:13Z</time>
      </trkpt>
      <trkpt lat="47.80974" lon="7.03533">
        <ele>837.45</ele>
        <time>2018-10-20T13:55:14Z</time>
      </trkpt>
      <trkpt lat="47.80972" lon="7.03532">
        <ele>834.56</ele>
        <time>2018-10-20T13:55:16Z</time>
      </trkpt>
      <trkpt lat="47.80972" lon="7.03531">
        <ele>838.89</ele>
        <time>2018-10-20T13:55:17Z</time>
      </trkpt>
      <trkpt lat="47.80971" lon="7.0353">
        <ele>839.37</ele>
        <time>2018-10-20T13:55:18Z</time>
      </trkpt>
      <trkpt lat="47.80969" lon="7.03525">
        <ele>840.33</ele>
        <time>2018-10-20T13:55:23Z</time>
      </trkpt>
      <trkpt lat="47.80969" lon="7.03524">
        <ele>838.41</ele>
        <time>2018-10-20T13:55:24Z</time>
      </trkpt>
      <trkpt lat="47.80969" lon="7.03517">
        <ele>838.89</ele>
        <time>2018-10-20T13:55:29Z</time>
      </trkpt>
      <trkpt lat="47.80979" lon="7.035">
        <ele>839.37</ele>
        <time>2018-10-20T13:55:43Z</time>
      </trkpt>
      <trkpt lat="47.80982" lon="7.03498">
        <ele>841.77</ele>
        <time>2018-10-20T13:55:45Z</time>
      </trkpt>
      <trkpt lat="47.80989" lon="7.0349">
        <ele>841.77</ele>
        <time>2018-10-20T13:55:52Z</time>
      </trkpt>
      <trkpt lat="47.8099" lon="7.03489">
        <ele>843.21</ele>
        <time>2018-10-20T13:55:53Z</time>
      </trkpt>
      <trkpt lat="47.8099" lon="7.03487">
        <ele>841.77</ele>
        <time>2018-10-20T13:55:54Z</time>
      </trkpt>
      <trkpt lat="47.80993" lon="7.03482">
        <ele>845.14</ele>
        <time>2018-10-20T13:55:59Z</time>
      </trkpt>
      <trkpt lat="47.80995" lon="7.0348">
        <ele>842.73</ele>
        <time>2018-10-20T13:56:00Z</time>
      </trkpt>
      <trkpt lat="47.81001" lon="7.03473">
        <ele>844.18</ele>
        <time>2018-10-20T13:56:06Z</time>
      </trkpt>
      <trkpt lat="47.81002" lon="7.03472">
        <ele>847.06</ele>
        <time>2018-10-20T13:56:07Z</time>
      </trkpt>
      <trkpt lat="47.81003" lon="7.03471">
        <ele>844.66</ele>
        <time>2018-10-20T13:56:08Z</time>
      </trkpt>
      <trkpt lat="47.81008" lon="7.03466">
        <ele>844.66</ele>
        <time>2018-10-20T13:56:13Z</time>
      </trkpt>
      <trkpt lat="47.81013" lon="7.0346">
        <ele>845.62</ele>
        <time>2018-10-20T13:56:19Z</time>
      </trkpt>
      <trkpt lat="47.81014" lon="7.03459">
        <ele>847.06</ele>
        <time>2018-10-20T13:56:20Z</time>
      </trkpt>
      <trkpt lat="47.81019" lon="7.03454">
        <ele>845.62</ele>
        <time>2018-10-20T13:56:25Z</time>
      </trkpt>
      <trkpt lat="47.81021" lon="7.03452">
        <ele>847.54</ele>
        <time>2018-10-20T13:56:26Z</time>
      </trkpt>
      <trkpt lat="47.81033" lon="7.0344">
        <ele>848.02</ele>
        <time>2018-10-20T13:56:35Z</time>
      </trkpt>
      <trkpt lat="47.81048" lon="7.03429">
        <ele>848.98</ele>
        <time>2018-10-20T13:56:44Z</time>
      </trkpt>
      <trkpt lat="47.81098" lon="7.03419">
        <ele>848.02</ele>
        <time>2018-10-20T13:57:00Z</time>
      </trkpt>
      <trkpt lat="47.81147" lon="7.03393">
        <ele>849.46</ele>
        <time>2018-10-20T13:57:18Z</time>
      </trkpt>
      <trkpt lat="47.81154" lon="7.0339">
        <ele>850.42</ele>
        <time>2018-10-20T13:57:21Z</time>
      </trkpt>
      <trkpt lat="47.81168" lon="7.03389">
        <ele>848.98</ele>
        <time>2018-10-20T13:57:27Z</time>
      </trkpt>
      <trkpt lat="47.81173" lon="7.03389">
        <ele>852.83</ele>
        <time>2018-10-20T13:57:29Z</time>
      </trkpt>
      <trkpt lat="47.81183" lon="7.03386">
        <ele>853.31</ele>
        <time>2018-10-20T13:57:35Z</time>
      </trkpt>
      <trkpt lat="47.81189" lon="7.03383">
        <ele>853.31</ele>
        <time>2018-10-20T13:57:41Z</time>
      </trkpt>
      <trkpt lat="47.8118" lon="7.03357">
        <ele>854.27</ele>
        <time>2018-10-20T13:58:01Z</time>
      </trkpt>
      <trkpt lat="47.81171" lon="7.03343">
        <ele>855.71</ele>
        <time>2018-10-20T13:58:03Z</time>
      </trkpt>
      <trkpt lat="47.81166" lon="7.03317">
        <ele>857.63</ele>
        <time>2018-10-20T13:58:16Z</time>
      </trkpt>
      <trkpt lat="47.81166" lon="7.03307">
        <ele>858.59</ele>
        <time>2018-10-20T13:58:22Z</time>
      </trkpt>
      <trkpt lat="47.81165" lon="7.03295">
        <ele>860.04</ele>
        <time>2018-10-20T13:58:37Z</time>
      </trkpt>
      <trkpt lat="47.81176" lon="7.03287">
        <ele>861</ele>
        <time>2018-10-20T13:58:54Z</time>
      </trkpt>
      <trkpt lat="47.81178" lon="7.03279">
        <ele>861.48</ele>
        <time>2018-10-20T13:59:12Z</time>
      </trkpt>
      <trkpt lat="47.81178" lon="7.03278">
        <ele>861.96</ele>
        <time>2018-10-20T13:59:36Z</time>
      </trkpt>
      <trkpt lat="47.81181" lon="7.0327">
        <ele>863.4</ele>
        <time>2018-10-20T13:59:48Z</time>
      </trkpt>
      <trkpt lat="47.81193" lon="7.03253">
        <ele>863.88</ele>
        <time>2018-10-20T14:00:04Z</time>
      </trkpt>
      <trkpt lat="47.81214" lon="7.03249">
        <ele>864.36</ele>
        <time>2018-10-20T14:00:20Z</time>
      </trkpt>
      <trkpt lat="47.81218" lon="7.03247">
        <ele>866.77</ele>
        <time>2018-10-20T14:00:23Z</time>
      </trkpt>
      <trkpt lat="47.81226" lon="7.03244">
        <ele>867.73</ele>
        <time>2018-10-20T14:00:36Z</time>
      </trkpt>
      <trkpt lat="47.81238" lon="7.03244">
        <ele>867.25</ele>
        <time>2018-10-20T14:00:48Z</time>
      </trkpt>
      <trkpt lat="47.81251" lon="7.03246">
        <ele>868.69</ele>
        <time>2018-10-20T14:01:02Z</time>
      </trkpt>
      <trkpt lat="47.81253" lon="7.03246">
        <ele>870.13</ele>
        <time>2018-10-20T14:01:04Z</time>
      </trkpt>
      <trkpt lat="47.81266" lon="7.03246">
        <ele>871.57</ele>
        <time>2018-10-20T14:01:14Z</time>
      </trkpt>
      <trkpt lat="47.81287" lon="7.03247">
        <ele>872.53</ele>
        <time>2018-10-20T14:01:30Z</time>
      </trkpt>
      <trkpt lat="47.81288" lon="7.03247">
        <ele>871.57</ele>
        <time>2018-10-20T14:01:32Z</time>
      </trkpt>
      <trkpt lat="47.81299" lon="7.03248">
        <ele>874.94</ele>
        <time>2018-10-20T14:01:46Z</time>
      </trkpt>
      <trkpt lat="47.81299" lon="7.03248">
        <ele>874.94</ele>
        <time>2018-10-20T14:01:47Z</time>
      </trkpt>
      <trkpt lat="47.81308" lon="7.03246">
        <ele>875.42</ele>
        <time>2018-10-20T14:02:04Z</time>
      </trkpt>
      <trkpt lat="47.81323" lon="7.03244">
        <ele>877.82</ele>
        <time>2018-10-20T14:02:24Z</time>
      </trkpt>
      <trkpt lat="47.81325" lon="7.03244">
        <ele>876.86</ele>
        <time>2018-10-20T14:02:26Z</time>
      </trkpt>
      <trkpt lat="47.8135" lon="7.03251">
        <ele>880.71</ele>
        <time>2018-10-20T14:02:43Z</time>
      </trkpt>
      <trkpt lat="47.81372" lon="7.03245">
        <ele>881.19</ele>
        <time>2018-10-20T14:03:00Z</time>
      </trkpt>
      <trkpt lat="47.81375" lon="7.03244">
        <ele>882.15</ele>
        <time>2018-10-20T14:03:04Z</time>
      </trkpt>
      <trkpt lat="47.81382" lon="7.03243">
        <ele>883.11</ele>
        <time>2018-10-20T14:03:12Z</time>
      </trkpt>
      <trkpt lat="47.81391" lon="7.03244">
        <ele>884.07</ele>
        <time>2018-10-20T14:03:17Z</time>
      </trkpt>
      <trkpt lat="47.81414" lon="7.03244">
        <ele>887.43</ele>
        <time>2018-10-20T14:03:36Z</time>
      </trkpt>
      <trkpt lat="47.81435" lon="7.0324">
        <ele>888.4</ele>
        <time>2018-10-20T14:03:53Z</time>
      </trkpt>
      <trkpt lat="47.81441" lon="7.03239">
        <ele>889.84</ele>
        <time>2018-10-20T14:03:58Z</time>
      </trkpt>
      <trkpt lat="47.8146" lon="7.03238">
        <ele>891.28</ele>
        <time>2018-10-20T14:04:16Z</time>
      </trkpt>
      <trkpt lat="47.81463" lon="7.03238">
        <ele>890.8</ele>
        <time>2018-10-20T14:04:18Z</time>
      </trkpt>
      <trkpt lat="47.81467" lon="7.03237">
        <ele>891.76</ele>
        <time>2018-10-20T14:04:22Z</time>
      </trkpt>
      <trkpt lat="47.81477" lon="7.03236">
        <ele>893.68</ele>
        <time>2018-10-20T14:04:32Z</time>
      </trkpt>
      <trkpt lat="47.81482" lon="7.03231">
        <ele>894.64</ele>
        <time>2018-10-20T14:04:39Z</time>
      </trkpt>
      <trkpt lat="47.81491" lon="7.03229">
        <ele>896.57</ele>
        <time>2018-10-20T14:04:51Z</time>
      </trkpt>
      <trkpt lat="47.81501" lon="7.03229">
        <ele>898.49</ele>
        <time>2018-10-20T14:04:58Z</time>
      </trkpt>
      <trkpt lat="47.81529" lon="7.0322">
        <ele>899.93</ele>
        <time>2018-10-20T14:05:20Z</time>
      </trkpt>
      <trkpt lat="47.81535" lon="7.03217">
        <ele>900.89</ele>
        <time>2018-10-20T14:05:27Z</time>
      </trkpt>
      <trkpt lat="47.81547" lon="7.03206">
        <ele>900.89</ele>
        <time>2018-10-20T14:05:45Z</time>
      </trkpt>
      <trkpt lat="47.81552" lon="7.03199">
        <ele>904.74</ele>
        <time>2018-10-20T14:05:52Z</time>
      </trkpt>
      <trkpt lat="47.81555" lon="7.03193">
        <ele>903.78</ele>
        <time>2018-10-20T14:05:58Z</time>
      </trkpt>
      <trkpt lat="47.81567" lon="7.03178">
        <ele>904.26</ele>
        <time>2018-10-20T14:06:14Z</time>
      </trkpt>
      <trkpt lat="47.81574" lon="7.03169">
        <ele>908.1</ele>
        <time>2018-10-20T14:06:22Z</time>
      </trkpt>
      <trkpt lat="47.81577" lon="7.03163">
        <ele>908.1</ele>
        <time>2018-10-20T14:06:28Z</time>
      </trkpt>
      <trkpt lat="47.81579" lon="7.03158">
        <ele>908.58</ele>
        <time>2018-10-20T14:06:34Z</time>
      </trkpt>
      <trkpt lat="47.81592" lon="7.03137">
        <ele>911.95</ele>
        <time>2018-10-20T14:06:51Z</time>
      </trkpt>
      <trkpt lat="47.81598" lon="7.03128">
        <ele>912.43</ele>
        <time>2018-10-20T14:07:01Z</time>
      </trkpt>
      <trkpt lat="47.81605" lon="7.0311">
        <ele>914.35</ele>
        <time>2018-10-20T14:07:14Z</time>
      </trkpt>
      <trkpt lat="47.81612" lon="7.03099">
        <ele>915.31</ele>
        <time>2018-10-20T14:07:26Z</time>
      </trkpt>
      <trkpt lat="47.81615" lon="7.03084">
        <ele>918.68</ele>
        <time>2018-10-20T14:07:45Z</time>
      </trkpt>
      <trkpt lat="47.81616" lon="7.03075">
        <ele>920.6</ele>
        <time>2018-10-20T14:08:01Z</time>
      </trkpt>
      <trkpt lat="47.81618" lon="7.03063">
        <ele>921.08</ele>
        <time>2018-10-20T14:08:05Z</time>
      </trkpt>
      <trkpt lat="47.8162" lon="7.03045">
        <ele>924.45</ele>
        <time>2018-10-20T14:08:19Z</time>
      </trkpt>
      <trkpt lat="47.81619" lon="7.0303">
        <ele>924.45</ele>
        <time>2018-10-20T14:08:24Z</time>
      </trkpt>
      <trkpt lat="47.81619" lon="7.03029">
        <ele>923.48</ele>
        <time>2018-10-20T14:08:26Z</time>
      </trkpt>
      <trkpt lat="47.81619" lon="7.0302">
        <ele>925.41</ele>
        <time>2018-10-20T14:08:32Z</time>
      </trkpt>
      <trkpt lat="47.81621" lon="7.03015">
        <ele>925.89</ele>
        <time>2018-10-20T14:08:36Z</time>
      </trkpt>
      <trkpt lat="47.81624" lon="7.03004">
        <ele>926.85</ele>
        <time>2018-10-20T14:08:44Z</time>
      </trkpt>
      <trkpt lat="47.81624" lon="7.03">
        <ele>927.81</ele>
        <time>2018-10-20T14:08:50Z</time>
      </trkpt>
      <trkpt lat="47.81633" lon="7.02971">
        <ele>929.25</ele>
        <time>2018-10-20T14:09:11Z</time>
      </trkpt>
      <trkpt lat="47.81633" lon="7.02967">
        <ele>928.77</ele>
        <time>2018-10-20T14:09:13Z</time>
      </trkpt>
      <trkpt lat="47.81633" lon="7.02961">
        <ele>931.17</ele>
        <time>2018-10-20T14:09:17Z</time>
      </trkpt>
      <trkpt lat="47.81639" lon="7.02965">
        <ele>931.17</ele>
        <time>2018-10-20T14:09:36Z</time>
      </trkpt>
      <trkpt lat="47.81644" lon="7.02963">
        <ele>932.62</ele>
        <time>2018-10-20T14:09:48Z</time>
      </trkpt>
      <trkpt lat="47.81647" lon="7.02959">
        <ele>932.62</ele>
        <time>2018-10-20T14:09:53Z</time>
      </trkpt>
      <trkpt lat="47.81651" lon="7.02955">
        <ele>934.54</ele>
        <time>2018-10-20T14:09:57Z</time>
      </trkpt>
      <trkpt lat="47.81664" lon="7.02928">
        <ele>935.02</ele>
        <time>2018-10-20T14:10:17Z</time>
      </trkpt>
      <trkpt lat="47.81672" lon="7.02926">
        <ele>928.29</ele>
        <time>2018-10-20T14:10:28Z</time>
      </trkpt>
      <trkpt lat="47.81673" lon="7.02925">
        <ele>939.35</ele>
        <time>2018-10-20T14:10:29Z</time>
      </trkpt>
      <trkpt lat="47.81673" lon="7.02925">
        <ele>934.54</ele>
        <time>2018-10-20T14:10:30Z</time>
      </trkpt>
      <trkpt lat="47.81668" lon="7.02922">
        <ele>938.38</ele>
        <time>2018-10-20T14:10:51Z</time>
      </trkpt>
      <trkpt lat="47.81668" lon="7.02922">
        <ele>933.58</ele>
        <time>2018-10-20T14:10:56Z</time>
      </trkpt>
      <trkpt lat="47.81667" lon="7.02924">
        <ele>935.5</ele>
        <time>2018-10-20T14:11:04Z</time>
      </trkpt>
      <trkpt lat="47.81677" lon="7.02931">
        <ele>936.94</ele>
        <time>2018-10-20T14:11:16Z</time>
      </trkpt>
      <trkpt lat="47.81678" lon="7.02933">
        <ele>933.58</ele>
        <time>2018-10-20T14:11:39Z</time>
      </trkpt>
      <trkpt lat="47.81674" lon="7.02929">
        <ele>935.5</ele>
        <time>2018-10-20T14:11:46Z</time>
      </trkpt>
      <trkpt lat="47.81672" lon="7.02927">
        <ele>939.35</ele>
        <time>2018-10-20T14:11:50Z</time>
      </trkpt>
      <trkpt lat="47.81671" lon="7.02926">
        <ele>935.02</ele>
        <time>2018-10-20T14:11:52Z</time>
      </trkpt>
      <trkpt lat="47.81671" lon="7.02925">
        <ele>940.31</ele>
        <time>2018-10-20T14:11:53Z</time>
      </trkpt>
      <trkpt lat="47.81669" lon="7.02923">
        <ele>936.46</ele>
        <time>2018-10-20T14:11:56Z</time>
      </trkpt>
      <trkpt lat="47.81668" lon="7.02921">
        <ele>938.38</ele>
        <time>2018-10-20T14:11:59Z</time>
      </trkpt>
      <trkpt lat="47.81664" lon="7.02917">
        <ele>938.86</ele>
        <time>2018-10-20T14:12:02Z</time>
      </trkpt>
      <trkpt lat="47.81661" lon="7.02914">
        <ele>937.9</ele>
        <time>2018-10-20T14:12:04Z</time>
      </trkpt>
      <trkpt lat="47.81656" lon="7.02909">
        <ele>940.31</ele>
        <time>2018-10-20T14:12:07Z</time>
      </trkpt>
      <trkpt lat="47.81648" lon="7.029">
        <ele>940.79</ele>
        <time>2018-10-20T14:12:13Z</time>
      </trkpt>
      <trkpt lat="47.81642" lon="7.02893">
        <ele>944.15</ele>
        <time>2018-10-20T14:12:22Z</time>
      </trkpt>
      <trkpt lat="47.81636" lon="7.02882">
        <ele>943.19</ele>
        <time>2018-10-20T14:12:29Z</time>
      </trkpt>
      <trkpt lat="47.8163" lon="7.02869">
        <ele>943.67</ele>
        <time>2018-10-20T14:12:38Z</time>
      </trkpt>
      <trkpt lat="47.81627" lon="7.02862">
        <ele>945.59</ele>
        <time>2018-10-20T14:12:43Z</time>
      </trkpt>
      <trkpt lat="47.81616" lon="7.02849">
        <ele>948.48</ele>
        <time>2018-10-20T14:12:57Z</time>
      </trkpt>
      <trkpt lat="47.81607" lon="7.02842">
        <ele>948.96</ele>
        <time>2018-10-20T14:13:03Z</time>
      </trkpt>
      <trkpt lat="47.81582" lon="7.02828">
        <ele>952.32</ele>
        <time>2018-10-20T14:13:21Z</time>
      </trkpt>
      <trkpt lat="47.81577" lon="7.02825">
        <ele>951.84</ele>
        <time>2018-10-20T14:13:26Z</time>
      </trkpt>
      <trkpt lat="47.81569" lon="7.02812">
        <ele>955.21</ele>
        <time>2018-10-20T14:13:36Z</time>
      </trkpt>
      <trkpt lat="47.81569" lon="7.02811">
        <ele>954.25</ele>
        <time>2018-10-20T14:13:37Z</time>
      </trkpt>
      <trkpt lat="47.81567" lon="7.02801">
        <ele>957.13</ele>
        <time>2018-10-20T14:13:42Z</time>
      </trkpt>
      <trkpt lat="47.81566" lon="7.028">
        <ele>955.21</ele>
        <time>2018-10-20T14:13:43Z</time>
      </trkpt>
      <trkpt lat="47.81554" lon="7.02787">
        <ele>955.21</ele>
        <time>2018-10-20T14:13:58Z</time>
      </trkpt>
      <trkpt lat="47.81552" lon="7.02785">
        <ele>955.69</ele>
        <time>2018-10-20T14:14:00Z</time>
      </trkpt>
      <trkpt lat="47.81546" lon="7.02771">
        <ele>958.09</ele>
        <time>2018-10-20T14:14:10Z</time>
      </trkpt>
      <trkpt lat="47.81539" lon="7.02753">
        <ele>958.09</ele>
        <time>2018-10-20T14:14:24Z</time>
      </trkpt>
      <trkpt lat="47.81538" lon="7.02752">
        <ele>961.46</ele>
        <time>2018-10-20T14:14:25Z</time>
      </trkpt>
      <trkpt lat="47.81537" lon="7.02752">
        <ele>960.49</ele>
        <time>2018-10-20T14:14:26Z</time>
      </trkpt>
      <trkpt lat="47.81536" lon="7.02746">
        <ele>962.42</ele>
        <time>2018-10-20T14:14:34Z</time>
      </trkpt>
      <trkpt lat="47.81535" lon="7.02743">
        <ele>961.94</ele>
        <time>2018-10-20T14:14:36Z</time>
      </trkpt>
      <trkpt lat="47.8152" lon="7.02713">
        <ele>965.3</ele>
        <time>2018-10-20T14:14:54Z</time>
      </trkpt>
      <trkpt lat="47.8152" lon="7.02711">
        <ele>964.34</ele>
        <time>2018-10-20T14:14:55Z</time>
      </trkpt>
      <trkpt lat="47.8151" lon="7.02693">
        <ele>968.18</ele>
        <time>2018-10-20T14:15:07Z</time>
      </trkpt>
      <trkpt lat="47.81505" lon="7.02686">
        <ele>969.63</ele>
        <time>2018-10-20T14:15:14Z</time>
      </trkpt>
      <trkpt lat="47.81503" lon="7.02678">
        <ele>972.99</ele>
        <time>2018-10-20T14:15:20Z</time>
      </trkpt>
      <trkpt lat="47.81503" lon="7.02677">
        <ele>969.63</ele>
        <time>2018-10-20T14:15:21Z</time>
      </trkpt>
      <trkpt lat="47.81504" lon="7.0266">
        <ele>971.55</ele>
        <time>2018-10-20T14:15:36Z</time>
      </trkpt>
      <trkpt lat="47.81502" lon="7.02653">
        <ele>973.95</ele>
        <time>2018-10-20T14:15:41Z</time>
      </trkpt>
      <trkpt lat="47.815" lon="7.02647">
        <ele>970.11</ele>
        <time>2018-10-20T14:15:48Z</time>
      </trkpt>
      <trkpt lat="47.815" lon="7.02646">
        <ele>974.43</ele>
        <time>2018-10-20T14:15:49Z</time>
      </trkpt>
      <trkpt lat="47.81501" lon="7.02646">
        <ele>971.07</ele>
        <time>2018-10-20T14:15:57Z</time>
      </trkpt>
      <trkpt lat="47.81501" lon="7.02646">
        <ele>974.43</ele>
        <time>2018-10-20T14:15:58Z</time>
      </trkpt>
      <trkpt lat="47.81501" lon="7.02646">
        <ele>970.11</ele>
        <time>2018-10-20T14:16:02Z</time>
      </trkpt>
      <trkpt lat="47.81501" lon="7.02646">
        <ele>974.43</ele>
        <time>2018-10-20T14:16:03Z</time>
      </trkpt>
      <trkpt lat="47.81502" lon="7.02646">
        <ele>973.95</ele>
        <time>2018-10-20T14:16:04Z</time>
      </trkpt>
      <trkpt lat="47.81503" lon="7.02646">
        <ele>972.99</ele>
        <time>2018-10-20T14:16:23Z</time>
      </trkpt>
      <trkpt lat="47.81502" lon="7.02646">
        <ele>972.99</ele>
        <time>2018-10-20T14:16:43Z</time>
      </trkpt>
      <trkpt lat="47.81502" lon="7.02647">
        <ele>972.99</ele>
        <time>2018-10-20T14:17:07Z</time>
      </trkpt>
      <trkpt lat="47.81502" lon="7.02649">
        <ele>972.99</ele>
        <time>2018-10-20T14:17:32Z</time>
      </trkpt>
      <trkpt lat="47.81501" lon="7.02642">
        <ele>973.95</ele>
        <time>2018-10-20T14:17:59Z</time>
      </trkpt>
      <trkpt lat="47.81501" lon="7.02641">
        <ele>974.43</ele>
        <time>2018-10-20T14:18:00Z</time>
      </trkpt>
      <trkpt lat="47.81506" lon="7.02629">
        <ele>976.36</ele>
        <time>2018-10-20T14:18:15Z</time>
      </trkpt>
      <trkpt lat="47.8151" lon="7.02627">
        <ele>978.28</ele>
        <time>2018-10-20T14:18:19Z</time>
      </trkpt>
      <trkpt lat="47.81513" lon="7.02611">
        <ele>980.2</ele>
        <time>2018-10-20T14:18:30Z</time>
      </trkpt>
      <trkpt lat="47.8152" lon="7.02599">
        <ele>981.64</ele>
        <time>2018-10-20T14:18:40Z</time>
      </trkpt>
      <trkpt lat="47.81526" lon="7.02587">
        <ele>983.57</ele>
        <time>2018-10-20T14:18:49Z</time>
      </trkpt>
      <trkpt lat="47.8153" lon="7.02582">
        <ele>985.01</ele>
        <time>2018-10-20T14:18:56Z</time>
      </trkpt>
      <trkpt lat="47.81541" lon="7.02569">
        <ele>986.93</ele>
        <time>2018-10-20T14:19:10Z</time>
      </trkpt>
      <trkpt lat="47.81542" lon="7.02568">
        <ele>985.97</ele>
        <time>2018-10-20T14:19:11Z</time>
      </trkpt>
      <trkpt lat="47.81552" lon="7.02557">
        <ele>988.37</ele>
        <time>2018-10-20T14:19:21Z</time>
      </trkpt>
      <trkpt lat="47.81557" lon="7.02555">
        <ele>990.78</ele>
        <time>2018-10-20T14:19:26Z</time>
      </trkpt>
      <trkpt lat="47.81563" lon="7.0254">
        <ele>991.74</ele>
        <time>2018-10-20T14:19:44Z</time>
      </trkpt>
      <trkpt lat="47.81566" lon="7.02532">
        <ele>994.62</ele>
        <time>2018-10-20T14:19:50Z</time>
      </trkpt>
      <trkpt lat="47.81571" lon="7.02524">
        <ele>993.66</ele>
        <time>2018-10-20T14:19:58Z</time>
      </trkpt>
      <trkpt lat="47.81571" lon="7.02524">
        <ele>992.7</ele>
        <time>2018-10-20T14:19:59Z</time>
      </trkpt>
      <trkpt lat="47.81582" lon="7.02519">
        <ele>997.51</ele>
        <time>2018-10-20T14:20:13Z</time>
      </trkpt>
      <trkpt lat="47.81582" lon="7.02519">
        <ele>996.54</ele>
        <time>2018-10-20T14:20:14Z</time>
      </trkpt>
      <trkpt lat="47.81599" lon="7.02502">
        <ele>999.91</ele>
        <time>2018-10-20T14:20:32Z</time>
      </trkpt>
      <trkpt lat="47.81607" lon="7.02494">
        <ele>1000.39</ele>
        <time>2018-10-20T14:20:39Z</time>
      </trkpt>
      <trkpt lat="47.81617" lon="7.02483">
        <ele>1002.79</ele>
        <time>2018-10-20T14:20:54Z</time>
      </trkpt>
      <trkpt lat="47.81624" lon="7.02478">
        <ele>1004.72</ele>
        <time>2018-10-20T14:21:10Z</time>
      </trkpt>
      <trkpt lat="47.8163" lon="7.0248">
        <ele>1005.68</ele>
        <time>2018-10-20T14:21:17Z</time>
      </trkpt>
      <trkpt lat="47.81649" lon="7.02476">
        <ele>1010</ele>
        <time>2018-10-20T14:21:34Z</time>
      </trkpt>
      <trkpt lat="47.8165" lon="7.02476">
        <ele>1009.04</ele>
        <time>2018-10-20T14:21:35Z</time>
      </trkpt>
      <trkpt lat="47.8166" lon="7.02473">
        <ele>1010.48</ele>
        <time>2018-10-20T14:21:45Z</time>
      </trkpt>
      <trkpt lat="47.81665" lon="7.0247">
        <ele>1011.93</ele>
        <time>2018-10-20T14:21:51Z</time>
      </trkpt>
      <trkpt lat="47.81667" lon="7.0247">
        <ele>1010.96</ele>
        <time>2018-10-20T14:21:53Z</time>
      </trkpt>
      <trkpt lat="47.81671" lon="7.02469">
        <ele>1014.81</ele>
        <time>2018-10-20T14:21:58Z</time>
      </trkpt>
      <trkpt lat="47.8168" lon="7.02466">
        <ele>1015.77</ele>
        <time>2018-10-20T14:22:06Z</time>
      </trkpt>
      <trkpt lat="47.81709" lon="7.02462">
        <ele>1017.21</ele>
        <time>2018-10-20T14:22:29Z</time>
      </trkpt>
      <trkpt lat="47.81713" lon="7.02462">
        <ele>1021.06</ele>
        <time>2018-10-20T14:22:43Z</time>
      </trkpt>
      <trkpt lat="47.81714" lon="7.02462">
        <ele>1017.69</ele>
        <time>2018-10-20T14:22:45Z</time>
      </trkpt>
      <trkpt lat="47.81715" lon="7.02463">
        <ele>1020.58</ele>
        <time>2018-10-20T14:22:48Z</time>
      </trkpt>
      <trkpt lat="47.81718" lon="7.02463">
        <ele>1019.13</ele>
        <time>2018-10-20T14:22:51Z</time>
      </trkpt>
      <trkpt lat="47.81726" lon="7.02463">
        <ele>1022.5</ele>
        <time>2018-10-20T14:22:59Z</time>
      </trkpt>
      <trkpt lat="47.81728" lon="7.02463">
        <ele>1020.58</ele>
        <time>2018-10-20T14:23:02Z</time>
      </trkpt>
      <trkpt lat="47.81734" lon="7.02462">
        <ele>1024.9</ele>
        <time>2018-10-20T14:23:08Z</time>
      </trkpt>
      <trkpt lat="47.81735" lon="7.02462">
        <ele>1024.42</ele>
        <time>2018-10-20T14:23:09Z</time>
      </trkpt>
      <trkpt lat="47.81748" lon="7.02464">
        <ele>1025.38</ele>
        <time>2018-10-20T14:23:19Z</time>
      </trkpt>
      <trkpt lat="47.8176" lon="7.02463">
        <ele>1027.31</ele>
        <time>2018-10-20T14:23:29Z</time>
      </trkpt>
      <trkpt lat="47.81766" lon="7.02458">
        <ele>1026.83</ele>
        <time>2018-10-20T14:23:34Z</time>
      </trkpt>
      <trkpt lat="47.81768" lon="7.02457">
        <ele>1032.59</ele>
        <time>2018-10-20T14:23:35Z</time>
      </trkpt>
      <trkpt lat="47.81768" lon="7.02457">
        <ele>1029.23</ele>
        <time>2018-10-20T14:23:36Z</time>
      </trkpt>
      <trkpt lat="47.81793" lon="7.02457">
        <ele>1029.71</ele>
        <time>2018-10-20T14:23:53Z</time>
      </trkpt>
      <trkpt lat="47.81803" lon="7.02451">
        <ele>1032.11</ele>
        <time>2018-10-20T14:24:08Z</time>
      </trkpt>
      <trkpt lat="47.8181" lon="7.02451">
        <ele>1035.96</ele>
        <time>2018-10-20T14:24:18Z</time>
      </trkpt>
      <trkpt lat="47.81811" lon="7.02451">
        <ele>1034.04</ele>
        <time>2018-10-20T14:24:19Z</time>
      </trkpt>
      <trkpt lat="47.81821" lon="7.0245">
        <ele>1035.48</ele>
        <time>2018-10-20T14:24:29Z</time>
      </trkpt>
      <trkpt lat="47.81825" lon="7.02452">
        <ele>1037.4</ele>
        <time>2018-10-20T14:24:35Z</time>
      </trkpt>
      <trkpt lat="47.81835" lon="7.02452">
        <ele>1040.28</ele>
        <time>2018-10-20T14:24:53Z</time>
      </trkpt>
      <trkpt lat="47.81844" lon="7.02458">
        <ele>1041.25</ele>
        <time>2018-10-20T14:25:11Z</time>
      </trkpt>
      <trkpt lat="47.81845" lon="7.02459">
        <ele>1044.13</ele>
        <time>2018-10-20T14:25:12Z</time>
      </trkpt>
      <trkpt lat="47.81845" lon="7.02461">
        <ele>1043.65</ele>
        <time>2018-10-20T14:25:13Z</time>
      </trkpt>
      <trkpt lat="47.81847" lon="7.02463">
        <ele>1042.69</ele>
        <time>2018-10-20T14:25:15Z</time>
      </trkpt>
      <trkpt lat="47.81859" lon="7.02463">
        <ele>1045.09</ele>
        <time>2018-10-20T14:25:28Z</time>
      </trkpt>
      <trkpt lat="47.81871" lon="7.02463">
        <ele>1046.53</ele>
        <time>2018-10-20T14:25:41Z</time>
      </trkpt>
      <trkpt lat="47.81884" lon="7.02466">
        <ele>1047.01</ele>
        <time>2018-10-20T14:25:49Z</time>
      </trkpt>
      <trkpt lat="47.81896" lon="7.02472">
        <ele>1050.86</ele>
        <time>2018-10-20T14:26:05Z</time>
      </trkpt>
      <trkpt lat="47.81898" lon="7.02473">
        <ele>1047.49</ele>
        <time>2018-10-20T14:26:08Z</time>
      </trkpt>
      <trkpt lat="47.81898" lon="7.02473">
        <ele>1052.3</ele>
        <time>2018-10-20T14:26:09Z</time>
      </trkpt>
      <trkpt lat="47.81899" lon="7.02473">
        <ele>1050.86</ele>
        <time>2018-10-20T14:26:10Z</time>
      </trkpt>
      <trkpt lat="47.81921" lon="7.02467">
        <ele>1050.38</ele>
        <time>2018-10-20T14:26:27Z</time>
      </trkpt>
      <trkpt lat="47.81947" lon="7.02457">
        <ele>1054.22</ele>
        <time>2018-10-20T14:26:45Z</time>
      </trkpt>
      <trkpt lat="47.81957" lon="7.02445">
        <ele>1054.7</ele>
        <time>2018-10-20T14:26:57Z</time>
      </trkpt>
      <trkpt lat="47.81969" lon="7.02433">
        <ele>1056.15</ele>
        <time>2018-10-20T14:27:10Z</time>
      </trkpt>
      <trkpt lat="47.81974" lon="7.02431">
        <ele>1056.15</ele>
        <time>2018-10-20T14:27:14Z</time>
      </trkpt>
      <trkpt lat="47.81991" lon="7.02428">
        <ele>1058.07</ele>
        <time>2018-10-20T14:27:29Z</time>
      </trkpt>
      <trkpt lat="47.82006" lon="7.02418">
        <ele>1059.03</ele>
        <time>2018-10-20T14:27:43Z</time>
      </trkpt>
      <trkpt lat="47.8202" lon="7.02408">
        <ele>1059.51</ele>
        <time>2018-10-20T14:27:56Z</time>
      </trkpt>
      <trkpt lat="47.82029" lon="7.024">
        <ele>1059.03</ele>
        <time>2018-10-20T14:28:05Z</time>
      </trkpt>
      <trkpt lat="47.82034" lon="7.02397">
        <ele>1060.47</ele>
        <time>2018-10-20T14:28:10Z</time>
      </trkpt>
      <trkpt lat="47.82037" lon="7.02393">
        <ele>1059.99</ele>
        <time>2018-10-20T14:28:14Z</time>
      </trkpt>
      <trkpt lat="47.8204" lon="7.02388">
        <ele>1060.95</ele>
        <time>2018-10-20T14:28:18Z</time>
      </trkpt>
      <trkpt lat="47.82045" lon="7.02381">
        <ele>1061.43</ele>
        <time>2018-10-20T14:28:24Z</time>
      </trkpt>
      <trkpt lat="47.82051" lon="7.02371">
        <ele>1058.07</ele>
        <time>2018-10-20T14:28:30Z</time>
      </trkpt>
      <trkpt lat="47.82052" lon="7.0237">
        <ele>1063.36</ele>
        <time>2018-10-20T14:28:31Z</time>
      </trkpt>
      <trkpt lat="47.82053" lon="7.02369">
        <ele>1062.87</ele>
        <time>2018-10-20T14:28:32Z</time>
      </trkpt>
      <trkpt lat="47.82054" lon="7.02366">
        <ele>1062.39</ele>
        <time>2018-10-20T14:28:35Z</time>
      </trkpt>
      <trkpt lat="47.82059" lon="7.02359">
        <ele>1062.39</ele>
        <time>2018-10-20T14:28:40Z</time>
      </trkpt>
      <trkpt lat="47.82071" lon="7.02342">
        <ele>1064.32</ele>
        <time>2018-10-20T14:28:54Z</time>
      </trkpt>
      <trkpt lat="47.82074" lon="7.02336">
        <ele>1065.76</ele>
        <time>2018-10-20T14:28:58Z</time>
      </trkpt>
      <trkpt lat="47.82084" lon="7.0232">
        <ele>1065.28</ele>
        <time>2018-10-20T14:29:11Z</time>
      </trkpt>
      <trkpt lat="47.82089" lon="7.02314">
        <ele>1065.28</ele>
        <time>2018-10-20T14:29:17Z</time>
      </trkpt>
      <trkpt lat="47.821" lon="7.02303">
        <ele>1066.24</ele>
        <time>2018-10-20T14:29:30Z</time>
      </trkpt>
      <trkpt lat="47.82112" lon="7.02285">
        <ele>1067.2</ele>
        <time>2018-10-20T14:29:44Z</time>
      </trkpt>
      <trkpt lat="47.82121" lon="7.0227">
        <ele>1067.2</ele>
        <time>2018-10-20T14:29:56Z</time>
      </trkpt>
      <trkpt lat="47.82126" lon="7.02263">
        <ele>1068.64</ele>
        <time>2018-10-20T14:30:01Z</time>
      </trkpt>
      <trkpt lat="47.8213" lon="7.02256">
        <ele>1067.68</ele>
        <time>2018-10-20T14:30:05Z</time>
      </trkpt>
      <trkpt lat="47.82145" lon="7.02233">
        <ele>1069.12</ele>
        <time>2018-10-20T14:30:23Z</time>
      </trkpt>
      <trkpt lat="47.82154" lon="7.02215">
        <ele>1071.05</ele>
        <time>2018-10-20T14:30:37Z</time>
      </trkpt>
      <trkpt lat="47.82161" lon="7.02193">
        <ele>1072.01</ele>
        <time>2018-10-20T14:30:51Z</time>
      </trkpt>
      <trkpt lat="47.82162" lon="7.0219">
        <ele>1073.45</ele>
        <time>2018-10-20T14:30:53Z</time>
      </trkpt>
      <trkpt lat="47.82168" lon="7.02174">
        <ele>1074.41</ele>
        <time>2018-10-20T14:31:05Z</time>
      </trkpt>
      <trkpt lat="47.82173" lon="7.02165">
        <ele>1075.85</ele>
        <time>2018-10-20T14:31:11Z</time>
      </trkpt>
      <trkpt lat="47.82176" lon="7.02153">
        <ele>1076.33</ele>
        <time>2018-10-20T14:31:18Z</time>
      </trkpt>
      <trkpt lat="47.8218" lon="7.02149">
        <ele>1076.33</ele>
        <time>2018-10-20T14:31:22Z</time>
      </trkpt>
      <trkpt lat="47.82183" lon="7.02142">
        <ele>1076.81</ele>
        <time>2018-10-20T14:31:27Z</time>
      </trkpt>
      <trkpt lat="47.82188" lon="7.0213">
        <ele>1078.74</ele>
        <time>2018-10-20T14:31:35Z</time>
      </trkpt>
      <trkpt lat="47.82188" lon="7.02128">
        <ele>1078.26</ele>
        <time>2018-10-20T14:31:36Z</time>
      </trkpt>
      <trkpt lat="47.82191" lon="7.02115">
        <ele>1078.74</ele>
        <time>2018-10-20T14:31:50Z</time>
      </trkpt>
      <trkpt lat="47.82192" lon="7.02113">
        <ele>1079.7</ele>
        <time>2018-10-20T14:32:11Z</time>
      </trkpt>
      <trkpt lat="47.82199" lon="7.02099">
        <ele>1080.66</ele>
        <time>2018-10-20T14:32:24Z</time>
      </trkpt>
      <trkpt lat="47.82199" lon="7.02097">
        <ele>1080.66</ele>
        <time>2018-10-20T14:32:25Z</time>
      </trkpt>
      <trkpt lat="47.822" lon="7.02092">
        <ele>1080.18</ele>
        <time>2018-10-20T14:32:28Z</time>
      </trkpt>
      <trkpt lat="47.82207" lon="7.02079">
        <ele>1082.1</ele>
        <time>2018-10-20T14:32:41Z</time>
      </trkpt>
      <trkpt lat="47.82213" lon="7.02067">
        <ele>1082.1</ele>
        <time>2018-10-20T14:32:50Z</time>
      </trkpt>
      <trkpt lat="47.82215" lon="7.02063">
        <ele>1083.54</ele>
        <time>2018-10-20T14:32:53Z</time>
      </trkpt>
      <trkpt lat="47.82216" lon="7.0206">
        <ele>1082.58</ele>
        <time>2018-10-20T14:32:55Z</time>
      </trkpt>
      <trkpt lat="47.8222" lon="7.0205">
        <ele>1084.5</ele>
        <time>2018-10-20T14:33:01Z</time>
      </trkpt>
      <trkpt lat="47.82224" lon="7.0204">
        <ele>1086.43</ele>
        <time>2018-10-20T14:33:08Z</time>
      </trkpt>
      <trkpt lat="47.82235" lon="7.0203">
        <ele>1086.43</ele>
        <time>2018-10-20T14:33:20Z</time>
      </trkpt>
      <trkpt lat="47.82248" lon="7.02019">
        <ele>1088.35</ele>
        <time>2018-10-20T14:33:34Z</time>
      </trkpt>
      <trkpt lat="47.82261" lon="7.02007">
        <ele>1090.27</ele>
        <time>2018-10-20T14:33:49Z</time>
      </trkpt>
      <trkpt lat="47.82263" lon="7.02006">
        <ele>1090.75</ele>
        <time>2018-10-20T14:33:52Z</time>
      </trkpt>
      <trkpt lat="47.82275" lon="7.01996">
        <ele>1091.23</ele>
        <time>2018-10-20T14:34:06Z</time>
      </trkpt>
      <trkpt lat="47.8228" lon="7.01995">
        <ele>1091.71</ele>
        <time>2018-10-20T14:34:18Z</time>
      </trkpt>
      <trkpt lat="47.82281" lon="7.01992">
        <ele>1091.71</ele>
        <time>2018-10-20T14:34:34Z</time>
      </trkpt>
      <trkpt lat="47.82281" lon="7.01984">
        <ele>1090.75</ele>
        <time>2018-10-20T14:34:43Z</time>
      </trkpt>
      <trkpt lat="47.82282" lon="7.01978">
        <ele>1091.71</ele>
        <time>2018-10-20T14:34:48Z</time>
      </trkpt>
      <trkpt lat="47.82286" lon="7.0197">
        <ele>1091.71</ele>
        <time>2018-10-20T14:35:02Z</time>
      </trkpt>
      <trkpt lat="47.82286" lon="7.0197">
        <ele>1092.68</ele>
        <time>2018-10-20T14:35:22Z</time>
      </trkpt>
      <trkpt lat="47.82288" lon="7.01968">
        <ele>1091.71</ele>
        <time>2018-10-20T14:35:24Z</time>
      </trkpt>
      <trkpt lat="47.8229" lon="7.01966">
        <ele>1092.68</ele>
        <time>2018-10-20T14:35:26Z</time>
      </trkpt>
      <trkpt lat="47.82294" lon="7.01951">
        <ele>1091.71</ele>
        <time>2018-10-20T14:35:36Z</time>
      </trkpt>
      <trkpt lat="47.82298" lon="7.01946">
        <ele>1091.71</ele>
        <time>2018-10-20T14:35:41Z</time>
      </trkpt>
      <trkpt lat="47.82309" lon="7.01935">
        <ele>1090.75</ele>
        <time>2018-10-20T14:35:55Z</time>
      </trkpt>
      <trkpt lat="47.8231" lon="7.01932">
        <ele>1092.2</ele>
        <time>2018-10-20T14:35:57Z</time>
      </trkpt>
      <trkpt lat="47.82318" lon="7.01929">
        <ele>1090.27</ele>
        <time>2018-10-20T14:36:06Z</time>
      </trkpt>
      <trkpt lat="47.82325" lon="7.01922">
        <ele>1090.75</ele>
        <time>2018-10-20T14:36:19Z</time>
      </trkpt>
      <trkpt lat="47.82326" lon="7.01921">
        <ele>1089.79</ele>
        <time>2018-10-20T14:36:38Z</time>
      </trkpt>
      <trkpt lat="47.82326" lon="7.01921">
        <ele>1089.79</ele>
        <time>2018-10-20T14:36:59Z</time>
      </trkpt>
      <trkpt lat="47.82326" lon="7.01921">
        <ele>1089.79</ele>
        <time>2018-10-20T14:37:25Z</time>
      </trkpt>
      <trkpt lat="47.82325" lon="7.01921">
        <ele>1079.7</ele>
        <time>2018-10-20T14:37:32Z</time>
      </trkpt>
      <trkpt lat="47.82325" lon="7.01921">
        <ele>1099.89</ele>
        <time>2018-10-20T14:37:33Z</time>
      </trkpt>
      <trkpt lat="47.82326" lon="7.0192">
        <ele>1090.75</ele>
        <time>2018-10-20T14:37:34Z</time>
      </trkpt>
      <trkpt lat="47.82326" lon="7.0192">
        <ele>1090.27</ele>
        <time>2018-10-20T14:37:36Z</time>
      </trkpt>
      <trkpt lat="47.82327" lon="7.0192">
        <ele>1090.27</ele>
        <time>2018-10-20T14:37:59Z</time>
      </trkpt>
      <trkpt lat="47.82327" lon="7.01922">
        <ele>1091.23</ele>
        <time>2018-10-20T14:38:03Z</time>
      </trkpt>
      <trkpt lat="47.82327" lon="7.01926">
        <ele>1089.79</ele>
        <time>2018-10-20T14:38:06Z</time>
      </trkpt>
      <trkpt lat="47.82326" lon="7.01934">
        <ele>1090.75</ele>
        <time>2018-10-20T14:38:11Z</time>
      </trkpt>
      <trkpt lat="47.8232" lon="7.01949">
        <ele>1091.23</ele>
        <time>2018-10-20T14:38:21Z</time>
      </trkpt>
      <trkpt lat="47.82314" lon="7.0196">
        <ele>1091.23</ele>
        <time>2018-10-20T14:38:31Z</time>
      </trkpt>
      <trkpt lat="47.82308" lon="7.01972">
        <ele>1092.2</ele>
        <time>2018-10-20T14:38:41Z</time>
      </trkpt>
      <trkpt lat="47.82304" lon="7.0198">
        <ele>1092.68</ele>
        <time>2018-10-20T14:38:47Z</time>
      </trkpt>
      <trkpt lat="47.82297" lon="7.0199">
        <ele>1092.68</ele>
        <time>2018-10-20T14:38:56Z</time>
      </trkpt>
      <trkpt lat="47.82284" lon="7.01998">
        <ele>1093.16</ele>
        <time>2018-10-20T14:39:09Z</time>
      </trkpt>
      <trkpt lat="47.82281" lon="7.02002">
        <ele>1093.16</ele>
        <time>2018-10-20T14:39:25Z</time>
      </trkpt>
      <trkpt lat="47.82281" lon="7.02002">
        <ele>1084.02</ele>
        <time>2018-10-20T14:39:37Z</time>
      </trkpt>
      <trkpt lat="47.82281" lon="7.02002">
        <ele>1100.85</ele>
        <time>2018-10-20T14:39:38Z</time>
      </trkpt>
      <trkpt lat="47.82281" lon="7.02003">
        <ele>1094.6</ele>
        <time>2018-10-20T14:39:39Z</time>
      </trkpt>
      <trkpt lat="47.82282" lon="7.02012">
        <ele>1093.16</ele>
        <time>2018-10-20T14:39:47Z</time>
      </trkpt>
      <trkpt lat="47.82283" lon="7.02017">
        <ele>1093.64</ele>
        <time>2018-10-20T14:39:51Z</time>
      </trkpt>
      <trkpt lat="47.82285" lon="7.0203">
        <ele>1093.16</ele>
        <time>2018-10-20T14:39:58Z</time>
      </trkpt>
      <trkpt lat="47.82289" lon="7.02047">
        <ele>1095.08</ele>
        <time>2018-10-20T14:40:07Z</time>
      </trkpt>
      <trkpt lat="47.82293" lon="7.02067">
        <ele>1095.56</ele>
        <time>2018-10-20T14:40:19Z</time>
      </trkpt>
      <trkpt lat="47.82293" lon="7.02068">
        <ele>1095.56</ele>
        <time>2018-10-20T14:40:20Z</time>
      </trkpt>
      <trkpt lat="47.82298" lon="7.02091">
        <ele>1096.04</ele>
        <time>2018-10-20T14:40:35Z</time>
      </trkpt>
      <trkpt lat="47.82302" lon="7.0211">
        <ele>1097</ele>
        <time>2018-10-20T14:40:47Z</time>
      </trkpt>
      <trkpt lat="47.82308" lon="7.0213">
        <ele>1098.44</ele>
        <time>2018-10-20T14:40:59Z</time>
      </trkpt>
      <trkpt lat="47.82311" lon="7.02148">
        <ele>1098.44</ele>
        <time>2018-10-20T14:41:12Z</time>
      </trkpt>
      <trkpt lat="47.82312" lon="7.02158">
        <ele>1100.37</ele>
        <time>2018-10-20T14:41:18Z</time>
      </trkpt>
      <trkpt lat="47.82314" lon="7.02177">
        <ele>1101.33</ele>
        <time>2018-10-20T14:41:32Z</time>
      </trkpt>
      <trkpt lat="47.82318" lon="7.02195">
        <ele>1101.81</ele>
        <time>2018-10-20T14:41:46Z</time>
      </trkpt>
      <trkpt lat="47.82324" lon="7.02212">
        <ele>1103.25</ele>
        <time>2018-10-20T14:41:57Z</time>
      </trkpt>
      <trkpt lat="47.82328" lon="7.02225">
        <ele>1106.13</ele>
        <time>2018-10-20T14:42:05Z</time>
      </trkpt>
      <trkpt lat="47.82327" lon="7.02225">
        <ele>1106.13</ele>
        <time>2018-10-20T14:42:07Z</time>
      </trkpt>
      <trkpt lat="47.82327" lon="7.02235">
        <ele>1108.06</ele>
        <time>2018-10-20T14:42:14Z</time>
      </trkpt>
      <trkpt lat="47.82327" lon="7.02237">
        <ele>1108.06</ele>
        <time>2018-10-20T14:42:15Z</time>
      </trkpt>
      <trkpt lat="47.82328" lon="7.02246">
        <ele>1109.02</ele>
        <time>2018-10-20T14:42:26Z</time>
      </trkpt>
      <trkpt lat="47.82328" lon="7.02251">
        <ele>1109.5</ele>
        <time>2018-10-20T14:42:34Z</time>
      </trkpt>
      <trkpt lat="47.82327" lon="7.02255">
        <ele>1109.98</ele>
        <time>2018-10-20T14:42:37Z</time>
      </trkpt>
      <trkpt lat="47.82326" lon="7.02268">
        <ele>1110.94</ele>
        <time>2018-10-20T14:42:46Z</time>
      </trkpt>
      <trkpt lat="47.82326" lon="7.02277">
        <ele>1111.42</ele>
        <time>2018-10-20T14:42:52Z</time>
      </trkpt>
      <trkpt lat="47.82327" lon="7.02284">
        <ele>1112.38</ele>
        <time>2018-10-20T14:42:57Z</time>
      </trkpt>
      <trkpt lat="47.8233" lon="7.02292">
        <ele>1112.86</ele>
        <time>2018-10-20T14:43:03Z</time>
      </trkpt>
      <trkpt lat="47.82331" lon="7.02297">
        <ele>1114.31</ele>
        <time>2018-10-20T14:43:07Z</time>
      </trkpt>
      <trkpt lat="47.8233" lon="7.02299">
        <ele>1113.82</ele>
        <time>2018-10-20T14:43:09Z</time>
      </trkpt>
      <trkpt lat="47.82328" lon="7.023">
        <ele>1113.82</ele>
        <time>2018-10-20T14:43:23Z</time>
      </trkpt>
      <trkpt lat="47.82327" lon="7.023">
        <ele>1113.34</ele>
        <time>2018-10-20T14:43:28Z</time>
      </trkpt>
      <trkpt lat="47.82325" lon="7.02308">
        <ele>1116.71</ele>
        <time>2018-10-20T14:43:35Z</time>
      </trkpt>
      <trkpt lat="47.82326" lon="7.02315">
        <ele>1114.79</ele>
        <time>2018-10-20T14:43:52Z</time>
      </trkpt>
      <trkpt lat="47.82326" lon="7.02315">
        <ele>1118.63</ele>
        <time>2018-10-20T14:43:53Z</time>
      </trkpt>
      <trkpt lat="47.82326" lon="7.02316">
        <ele>1117.67</ele>
        <time>2018-10-20T14:43:54Z</time>
      </trkpt>
      <trkpt lat="47.82326" lon="7.02316">
        <ele>1116.71</ele>
        <time>2018-10-20T14:43:56Z</time>
      </trkpt>
      <trkpt lat="47.82331" lon="7.02327">
        <ele>1119.59</ele>
        <time>2018-10-20T14:44:08Z</time>
      </trkpt>
      <trkpt lat="47.82331" lon="7.02328">
        <ele>1117.67</ele>
        <time>2018-10-20T14:44:09Z</time>
      </trkpt>
      <trkpt lat="47.82333" lon="7.02331">
        <ele>1115.27</ele>
        <time>2018-10-20T14:44:11Z</time>
      </trkpt>
      <trkpt lat="47.82333" lon="7.02332">
        <ele>1122.96</ele>
        <time>2018-10-20T14:44:12Z</time>
      </trkpt>
      <trkpt lat="47.82333" lon="7.02333">
        <ele>1119.59</ele>
        <time>2018-10-20T14:44:13Z</time>
      </trkpt>
      <trkpt lat="47.82335" lon="7.02342">
        <ele>1121.52</ele>
        <time>2018-10-20T14:44:25Z</time>
      </trkpt>
      <trkpt lat="47.82336" lon="7.02343">
        <ele>1122.96</ele>
        <time>2018-10-20T14:44:29Z</time>
      </trkpt>
      <trkpt lat="47.82345" lon="7.02347">
        <ele>1124.88</ele>
        <time>2018-10-20T14:44:45Z</time>
      </trkpt>
      <trkpt lat="47.82348" lon="7.02354">
        <ele>1125.84</ele>
        <time>2018-10-20T14:44:51Z</time>
      </trkpt>
      <trkpt lat="47.82348" lon="7.02357">
        <ele>1124.88</ele>
        <time>2018-10-20T14:44:53Z</time>
      </trkpt>
      <trkpt lat="47.82349" lon="7.02358">
        <ele>1128.24</ele>
        <time>2018-10-20T14:44:55Z</time>
      </trkpt>
      <trkpt lat="47.82349" lon="7.02361">
        <ele>1124.88</ele>
        <time>2018-10-20T14:44:58Z</time>
      </trkpt>
      <trkpt lat="47.8235" lon="7.02363">
        <ele>1129.69</ele>
        <time>2018-10-20T14:45:00Z</time>
      </trkpt>
      <trkpt lat="47.82352" lon="7.02365">
        <ele>1128.73</ele>
        <time>2018-10-20T14:45:18Z</time>
      </trkpt>
      <trkpt lat="47.82352" lon="7.02365">
        <ele>1128.73</ele>
        <time>2018-10-20T14:45:39Z</time>
      </trkpt>
      <trkpt lat="47.82352" lon="7.02365">
        <ele>1128.73</ele>
        <time>2018-10-20T14:46:02Z</time>
      </trkpt>
      <trkpt lat="47.82355" lon="7.02366">
        <ele>1128.24</ele>
        <time>2018-10-20T14:46:24Z</time>
      </trkpt>
      <trkpt lat="47.82355" lon="7.02366">
        <ele>1122</ele>
        <time>2018-10-20T14:46:27Z</time>
      </trkpt>
      <trkpt lat="47.82355" lon="7.02366">
        <ele>1136.42</ele>
        <time>2018-10-20T14:46:28Z</time>
      </trkpt>
      <trkpt lat="47.82355" lon="7.02367">
        <ele>1129.21</ele>
        <time>2018-10-20T14:46:29Z</time>
      </trkpt>
      <trkpt lat="47.82354" lon="7.02367">
        <ele>1129.69</ele>
        <time>2018-10-20T14:46:52Z</time>
      </trkpt>
      <trkpt lat="47.82355" lon="7.02368">
        <ele>1122.96</ele>
        <time>2018-10-20T14:46:58Z</time>
      </trkpt>
      <trkpt lat="47.82355" lon="7.02368">
        <ele>1132.09</ele>
        <time>2018-10-20T14:46:59Z</time>
      </trkpt>
      <trkpt lat="47.82355" lon="7.02368">
        <ele>1130.17</ele>
        <time>2018-10-20T14:47:00Z</time>
      </trkpt>
      <trkpt lat="47.82355" lon="7.02368">
        <ele>1129.21</ele>
        <time>2018-10-20T14:47:02Z</time>
      </trkpt>
      <trkpt lat="47.82355" lon="7.02368">
        <ele>1129.69</ele>
        <time>2018-10-20T14:47:24Z</time>
      </trkpt>
      <trkpt lat="47.82353" lon="7.02373">
        <ele>1129.69</ele>
        <time>2018-10-20T14:47:47Z</time>
      </trkpt>
      <trkpt lat="47.82353" lon="7.02372">
        <ele>1128.73</ele>
        <time>2018-10-20T14:48:02Z</time>
      </trkpt>
      <trkpt lat="47.82354" lon="7.02372">
        <ele>1129.69</ele>
        <time>2018-10-20T14:48:03Z</time>
      </trkpt>
      <trkpt lat="47.82354" lon="7.02372">
        <ele>1127.76</ele>
        <time>2018-10-20T14:48:08Z</time>
      </trkpt>
      <trkpt lat="47.82354" lon="7.02372">
        <ele>1130.65</ele>
        <time>2018-10-20T14:48:09Z</time>
      </trkpt>
      <trkpt lat="47.82359" lon="7.02359">
        <ele>1129.69</ele>
        <time>2018-10-20T14:48:28Z</time>
      </trkpt>
      <trkpt lat="47.82358" lon="7.02359">
        <ele>1129.69</ele>
        <time>2018-10-20T14:48:46Z</time>
      </trkpt>
      <trkpt lat="47.82356" lon="7.02361">
        <ele>1129.21</ele>
        <time>2018-10-20T14:49:09Z</time>
      </trkpt>
      <trkpt lat="47.82357" lon="7.02364">
        <ele>1129.69</ele>
        <time>2018-10-20T14:49:34Z</time>
      </trkpt>
      <trkpt lat="47.82355" lon="7.02374">
        <ele>1129.69</ele>
        <time>2018-10-20T14:49:58Z</time>
      </trkpt>
      <trkpt lat="47.82356" lon="7.02361">
        <ele>1127.28</ele>
        <time>2018-10-20T14:50:21Z</time>
      </trkpt>
      <trkpt lat="47.82355" lon="7.02361">
        <ele>1131.61</ele>
        <time>2018-10-20T14:50:23Z</time>
      </trkpt>
      <trkpt lat="47.82355" lon="7.02362">
        <ele>1124.4</ele>
        <time>2018-10-20T14:50:26Z</time>
      </trkpt>
      <trkpt lat="47.82355" lon="7.02362">
        <ele>1128.73</ele>
        <time>2018-10-20T14:50:27Z</time>
      </trkpt>
      <trkpt lat="47.82355" lon="7.02362">
        <ele>1132.09</ele>
        <time>2018-10-20T14:50:28Z</time>
      </trkpt>
      <trkpt lat="47.82353" lon="7.02364">
        <ele>1128.73</ele>
        <time>2018-10-20T14:50:35Z</time>
      </trkpt>
      <trkpt lat="47.82352" lon="7.02364">
        <ele>1126.8</ele>
        <time>2018-10-20T14:50:37Z</time>
      </trkpt>
      <trkpt lat="47.82351" lon="7.02364">
        <ele>1131.61</ele>
        <time>2018-10-20T14:50:38Z</time>
      </trkpt>
      <trkpt lat="47.82351" lon="7.02364">
        <ele>1130.65</ele>
        <time>2018-10-20T14:50:39Z</time>
      </trkpt>
      <trkpt lat="47.82349" lon="7.02365">
        <ele>1128.24</ele>
        <time>2018-10-20T14:50:44Z</time>
      </trkpt>
      <trkpt lat="47.82349" lon="7.02365">
        <ele>1131.61</ele>
        <time>2018-10-20T14:50:45Z</time>
      </trkpt>
      <trkpt lat="47.82348" lon="7.02365">
        <ele>1130.17</ele>
        <time>2018-10-20T14:50:46Z</time>
      </trkpt>
      <trkpt lat="47.82352" lon="7.02368">
        <ele>1129.69</ele>
        <time>2018-10-20T14:51:13Z</time>
      </trkpt>
      <trkpt lat="47.82352" lon="7.02368">
        <ele>1129.69</ele>
        <time>2018-10-20T14:51:37Z</time>
      </trkpt>
      <trkpt lat="47.82353" lon="7.02368">
        <ele>1129.69</ele>
        <time>2018-10-20T14:52:01Z</time>
      </trkpt>
      <trkpt lat="47.82354" lon="7.02368">
        <ele>1130.17</ele>
        <time>2018-10-20T14:52:27Z</time>
      </trkpt>
      <trkpt lat="47.82355" lon="7.02367">
        <ele>1130.17</ele>
        <time>2018-10-20T14:52:52Z</time>
      </trkpt>
      <trkpt lat="47.8236" lon="7.02368">
        <ele>1130.65</ele>
        <time>2018-10-20T14:53:15Z</time>
      </trkpt>
      <trkpt lat="47.82364" lon="7.02367">
        <ele>1130.65</ele>
        <time>2018-10-20T14:53:37Z</time>
      </trkpt>
      <trkpt lat="47.82369" lon="7.02366">
        <ele>1130.65</ele>
        <time>2018-10-20T14:53:57Z</time>
      </trkpt>
      <trkpt lat="47.82367" lon="7.02362">
        <ele>1130.65</ele>
        <time>2018-10-20T14:54:20Z</time>
      </trkpt>
      <trkpt lat="47.82362" lon="7.02361">
        <ele>1129.69</ele>
        <time>2018-10-20T14:54:40Z</time>
      </trkpt>
      <trkpt lat="47.82359" lon="7.02366">
        <ele>1130.65</ele>
        <time>2018-10-20T14:55:08Z</time>
      </trkpt>
      <trkpt lat="47.82358" lon="7.02366">
        <ele>1131.13</ele>
        <time>2018-10-20T14:55:30Z</time>
      </trkpt>
      <trkpt lat="47.82358" lon="7.02366">
        <ele>1131.13</ele>
        <time>2018-10-20T14:55:56Z</time>
      </trkpt>
      <trkpt lat="47.82358" lon="7.0236">
        <ele>1131.13</ele>
        <time>2018-10-20T14:56:20Z</time>
      </trkpt>
      <trkpt lat="47.8236" lon="7.02361">
        <ele>1131.13</ele>
        <time>2018-10-20T14:56:49Z</time>
      </trkpt>
      <trkpt lat="47.82359" lon="7.02363">
        <ele>1131.13</ele>
        <time>2018-10-20T14:57:18Z</time>
      </trkpt>
      <trkpt lat="47.82359" lon="7.02365">
        <ele>1131.13</ele>
        <time>2018-10-20T14:57:49Z</time>
      </trkpt>
      <trkpt lat="47.82359" lon="7.02365">
        <ele>1131.13</ele>
        <time>2018-10-20T14:58:12Z</time>
      </trkpt>
      <trkpt lat="47.82358" lon="7.02366">
        <ele>1131.13</ele>
        <time>2018-10-20T14:58:37Z</time>
      </trkpt>
      <trkpt lat="47.82354" lon="7.02365">
        <ele>1131.61</ele>
        <time>2018-10-20T14:59:04Z</time>
      </trkpt>
      <trkpt lat="47.82357" lon="7.02374">
        <ele>1131.13</ele>
        <time>2018-10-20T14:59:25Z</time>
      </trkpt>
      <trkpt lat="47.82358" lon="7.02371">
        <ele>1131.61</ele>
        <time>2018-10-20T14:59:48Z</time>
      </trkpt>
      <trkpt lat="47.82357" lon="7.0237">
        <ele>1131.13</ele>
        <time>2018-10-20T15:00:25Z</time>
      </trkpt>
      <trkpt lat="47.82357" lon="7.0237">
        <ele>1131.13</ele>
        <time>2018-10-20T15:00:59Z</time>
      </trkpt>
      <trkpt lat="47.82357" lon="7.02369">
        <ele>1131.13</ele>
        <time>2018-10-20T15:01:31Z</time>
      </trkpt>
      <trkpt lat="47.82357" lon="7.02369">
        <ele>1131.13</ele>
        <time>2018-10-20T15:02:08Z</time>
      </trkpt>
      <trkpt lat="47.82358" lon="7.02369">
        <ele>1131.13</ele>
        <time>2018-10-20T15:02:45Z</time>
      </trkpt>
      <trkpt lat="47.82359" lon="7.02368">
        <ele>1131.13</ele>
        <time>2018-10-20T15:03:22Z</time>
      </trkpt>
      <trkpt lat="47.82358" lon="7.02368">
        <ele>1131.13</ele>
        <time>2018-10-20T15:04:06Z</time>
      </trkpt>
      <trkpt lat="47.82358" lon="7.02367">
        <ele>1131.13</ele>
        <time>2018-10-20T15:04:48Z</time>
      </trkpt>
      <trkpt lat="47.82358" lon="7.02366">
        <ele>1131.13</ele>
        <time>2018-10-20T15:05:27Z</time>
      </trkpt>
      <trkpt lat="47.82357" lon="7.02367">
        <ele>1131.61</ele>
        <time>2018-10-20T15:06:08Z</time>
      </trkpt>
      <trkpt lat="47.82357" lon="7.02367">
        <ele>1131.61</ele>
        <time>2018-10-20T15:06:40Z</time>
      </trkpt>
      <trkpt lat="47.82356" lon="7.02368">
        <ele>1131.61</ele>
        <time>2018-10-20T15:07:18Z</time>
      </trkpt>
      <trkpt lat="47.82356" lon="7.02368">
        <ele>1132.09</ele>
        <time>2018-10-20T15:07:49Z</time>
      </trkpt>
      <trkpt lat="47.82356" lon="7.02369">
        <ele>1132.57</ele>
        <time>2018-10-20T15:08:25Z</time>
      </trkpt>
      <trkpt lat="47.82355" lon="7.02369">
        <ele>1132.09</ele>
        <time>2018-10-20T15:08:59Z</time>
      </trkpt>
      <trkpt lat="47.82355" lon="7.02369">
        <ele>1132.09</ele>
        <time>2018-10-20T15:09:28Z</time>
      </trkpt>
      <trkpt lat="47.82355" lon="7.02369">
        <ele>1132.09</ele>
        <time>2018-10-20T15:09:52Z</time>
      </trkpt>
      <trkpt lat="47.82355" lon="7.02369">
        <ele>1132.09</ele>
        <time>2018-10-20T15:10:22Z</time>
      </trkpt>
      <trkpt lat="47.82355" lon="7.02369">
        <ele>1133.53</ele>
        <time>2018-10-20T15:10:26Z</time>
      </trkpt>
      <trkpt lat="47.82355" lon="7.02369">
        <ele>1132.09</ele>
        <time>2018-10-20T15:10:28Z</time>
      </trkpt>
      <trkpt lat="47.82355" lon="7.02368">
        <ele>1128.73</ele>
        <time>2018-10-20T15:10:36Z</time>
      </trkpt>
      <trkpt lat="47.82356" lon="7.02368">
        <ele>1134.49</ele>
        <time>2018-10-20T15:10:37Z</time>
      </trkpt>
      <trkpt lat="47.82356" lon="7.02368">
        <ele>1132.57</ele>
        <time>2018-10-20T15:10:38Z</time>
      </trkpt>
      <trkpt lat="47.82357" lon="7.02367">
        <ele>1132.09</ele>
        <time>2018-10-20T15:11:03Z</time>
      </trkpt>
      <trkpt lat="47.82357" lon="7.02367">
        <ele>1126.8</ele>
        <time>2018-10-20T15:11:06Z</time>
      </trkpt>
      <trkpt lat="47.82357" lon="7.02367">
        <ele>1134.97</ele>
        <time>2018-10-20T15:11:07Z</time>
      </trkpt>
      <trkpt lat="47.82357" lon="7.02367">
        <ele>1131.61</ele>
        <time>2018-10-20T15:11:11Z</time>
      </trkpt>
      <trkpt lat="47.82357" lon="7.02366">
        <ele>1131.61</ele>
        <time>2018-10-20T15:11:36Z</time>
      </trkpt>
      <trkpt lat="47.82357" lon="7.02366">
        <ele>1134.49</ele>
        <time>2018-10-20T15:11:57Z</time>
      </trkpt>
      <trkpt lat="47.82357" lon="7.02366">
        <ele>1131.61</ele>
        <time>2018-10-20T15:11:59Z</time>
      </trkpt>
      <trkpt lat="47.82356" lon="7.02367">
        <ele>1131.61</ele>
        <time>2018-10-20T15:12:16Z</time>
      </trkpt>
      <trkpt lat="47.82356" lon="7.02367">
        <ele>1128.24</ele>
        <time>2018-10-20T15:12:20Z</time>
      </trkpt>
      <trkpt lat="47.82356" lon="7.02367">
        <ele>1134.49</ele>
        <time>2018-10-20T15:12:21Z</time>
      </trkpt>
      <trkpt lat="47.82356" lon="7.02367">
        <ele>1131.61</ele>
        <time>2018-10-20T15:12:32Z</time>
      </trkpt>
      <trkpt lat="47.82356" lon="7.02367">
        <ele>1129.69</ele>
        <time>2018-10-20T15:12:57Z</time>
      </trkpt>
      <trkpt lat="47.82356" lon="7.02367">
        <ele>1134.01</ele>
        <time>2018-10-20T15:12:59Z</time>
      </trkpt>
      <trkpt lat="47.82356" lon="7.02367">
        <ele>1132.09</ele>
        <time>2018-10-20T15:13:00Z</time>
      </trkpt>
      <trkpt lat="47.82356" lon="7.02367">
        <ele>1131.61</ele>
        <time>2018-10-20T15:13:26Z</time>
      </trkpt>
      <trkpt lat="47.82356" lon="7.02365">
        <ele>1131.61</ele>
        <time>2018-10-20T15:13:59Z</time>
      </trkpt>
      <trkpt lat="47.82357" lon="7.02366">
        <ele>1131.61</ele>
        <time>2018-10-20T15:14:31Z</time>
      </trkpt>
      <trkpt lat="47.82357" lon="7.02366">
        <ele>1121.52</ele>
        <time>2018-10-20T15:14:49Z</time>
      </trkpt>
      <trkpt lat="47.82357" lon="7.02366">
        <ele>1136.42</ele>
        <time>2018-10-20T15:14:50Z</time>
      </trkpt>
      <trkpt lat="47.82357" lon="7.02366">
        <ele>1130.17</ele>
        <time>2018-10-20T15:14:51Z</time>
      </trkpt>
      <trkpt lat="47.82357" lon="7.02366">
        <ele>1133.53</ele>
        <time>2018-10-20T15:14:52Z</time>
      </trkpt>
      <trkpt lat="47.82348" lon="7.02376">
        <ele>1131.61</ele>
        <time>2018-10-20T15:15:13Z</time>
      </trkpt>
      <trkpt lat="47.82342" lon="7.02384">
        <ele>1127.28</ele>
        <time>2018-10-20T15:15:21Z</time>
      </trkpt>
      <trkpt lat="47.82341" lon="7.02385">
        <ele>1137.38</ele>
        <time>2018-10-20T15:15:22Z</time>
      </trkpt>
      <trkpt lat="47.8234" lon="7.02386">
        <ele>1135.94</ele>
        <time>2018-10-20T15:15:23Z</time>
      </trkpt>
      <trkpt lat="47.82339" lon="7.02387">
        <ele>1132.09</ele>
        <time>2018-10-20T15:15:24Z</time>
      </trkpt>
      <trkpt lat="47.82339" lon="7.02387">
        <ele>1132.57</ele>
        <time>2018-10-20T15:15:25Z</time>
      </trkpt>
      <trkpt lat="47.82355" lon="7.02368">
        <ele>1128.73</ele>
        <time>2018-10-20T15:15:37Z</time>
      </trkpt>
      <trkpt lat="47.82355" lon="7.02368">
        <ele>1134.97</ele>
        <time>2018-10-20T15:15:38Z</time>
      </trkpt>
      <trkpt lat="47.82355" lon="7.02368">
        <ele>1132.09</ele>
        <time>2018-10-20T15:15:41Z</time>
      </trkpt>
      <trkpt lat="47.82355" lon="7.02368">
        <ele>1128.73</ele>
        <time>2018-10-20T15:15:45Z</time>
      </trkpt>
      <trkpt lat="47.82355" lon="7.02368">
        <ele>1133.53</ele>
        <time>2018-10-20T15:15:47Z</time>
      </trkpt>
      <trkpt lat="47.82355" lon="7.02368">
        <ele>1132.57</ele>
        <time>2018-10-20T15:15:48Z</time>
      </trkpt>
      <trkpt lat="47.82355" lon="7.02368">
        <ele>1136.9</ele>
        <time>2018-10-20T15:15:49Z</time>
      </trkpt>
      <trkpt lat="47.82355" lon="7.02368">
        <ele>1134.97</ele>
        <time>2018-10-20T15:15:50Z</time>
      </trkpt>
      <trkpt lat="47.82355" lon="7.02368">
        <ele>1132.09</ele>
        <time>2018-10-20T15:15:52Z</time>
      </trkpt>
      <trkpt lat="47.82356" lon="7.02369">
        <ele>1132.09</ele>
        <time>2018-10-20T15:16:19Z</time>
      </trkpt>
      <trkpt lat="47.82356" lon="7.02369">
        <ele>1131.61</ele>
        <time>2018-10-20T15:16:42Z</time>
      </trkpt>
      <trkpt lat="47.82357" lon="7.02369">
        <ele>1128.73</ele>
        <time>2018-10-20T15:16:44Z</time>
      </trkpt>
      <trkpt lat="47.82357" lon="7.02369">
        <ele>1129.21</ele>
        <time>2018-10-20T15:16:45Z</time>
      </trkpt>
      <trkpt lat="47.82357" lon="7.02369">
        <ele>1134.01</ele>
        <time>2018-10-20T15:16:47Z</time>
      </trkpt>
      <trkpt lat="47.82357" lon="7.02369">
        <ele>1132.09</ele>
        <time>2018-10-20T15:16:48Z</time>
      </trkpt>
      <trkpt lat="47.82357" lon="7.02369">
        <ele>1127.76</ele>
        <time>2018-10-20T15:16:51Z</time>
      </trkpt>
      <trkpt lat="47.82357" lon="7.02369">
        <ele>1130.65</ele>
        <time>2018-10-20T15:16:52Z</time>
      </trkpt>
      <trkpt lat="47.82357" lon="7.02369">
        <ele>1134.49</ele>
        <time>2018-10-20T15:16:53Z</time>
      </trkpt>
      <trkpt lat="47.82357" lon="7.02369">
        <ele>1133.53</ele>
        <time>2018-10-20T15:16:54Z</time>
      </trkpt>
      <trkpt lat="47.82357" lon="7.02369">
        <ele>1131.13</ele>
        <time>2018-10-20T15:16:56Z</time>
      </trkpt>
      <trkpt lat="47.82357" lon="7.02369">
        <ele>1125.84</ele>
        <time>2018-10-20T15:16:59Z</time>
      </trkpt>
      <trkpt lat="47.82357" lon="7.02369">
        <ele>1136.42</ele>
        <time>2018-10-20T15:17:00Z</time>
      </trkpt>
      <trkpt lat="47.82357" lon="7.02369">
        <ele>1131.13</ele>
        <time>2018-10-20T15:17:01Z</time>
      </trkpt>
      <trkpt lat="47.82357" lon="7.02369">
        <ele>1134.97</ele>
        <time>2018-10-20T15:17:04Z</time>
      </trkpt>
      <trkpt lat="47.82357" lon="7.02369">
        <ele>1134.97</ele>
        <time>2018-10-20T15:17:05Z</time>
      </trkpt>
      <trkpt lat="47.82357" lon="7.0237">
        <ele>1132.57</ele>
        <time>2018-10-20T15:17:08Z</time>
      </trkpt>
      <trkpt lat="47.82357" lon="7.02371">
        <ele>1132.09</ele>
        <time>2018-10-20T15:17:30Z</time>
      </trkpt>
      <trkpt lat="47.82359" lon="7.02382">
        <ele>1135.45</ele>
        <time>2018-10-20T15:17:44Z</time>
      </trkpt>
      <trkpt lat="47.82359" lon="7.02383">
        <ele>1135.45</ele>
        <time>2018-10-20T15:17:45Z</time>
      </trkpt>
      <trkpt lat="47.82359" lon="7.02398">
        <ele>1136.9</ele>
        <time>2018-10-20T15:17:59Z</time>
      </trkpt>
      <trkpt lat="47.82358" lon="7.02401">
        <ele>1137.38</ele>
        <time>2018-10-20T15:18:04Z</time>
      </trkpt>
      <trkpt lat="47.82356" lon="7.02405">
        <ele>1140.26</ele>
        <time>2018-10-20T15:18:09Z</time>
      </trkpt>
      <trkpt lat="47.82356" lon="7.02411">
        <ele>1140.26</ele>
        <time>2018-10-20T15:18:13Z</time>
      </trkpt>
      <trkpt lat="47.8236" lon="7.02419">
        <ele>1140.26</ele>
        <time>2018-10-20T15:18:18Z</time>
      </trkpt>
      <trkpt lat="47.82358" lon="7.02423">
        <ele>1141.22</ele>
        <time>2018-10-20T15:18:24Z</time>
      </trkpt>
      <trkpt lat="47.82355" lon="7.02424">
        <ele>1139.3</ele>
        <time>2018-10-20T15:18:39Z</time>
      </trkpt>
      <trkpt lat="47.82355" lon="7.02424">
        <ele>1142.66</ele>
        <time>2018-10-20T15:18:40Z</time>
      </trkpt>
      <trkpt lat="47.82356" lon="7.02427">
        <ele>1139.3</ele>
        <time>2018-10-20T15:18:46Z</time>
      </trkpt>
      <trkpt lat="47.82356" lon="7.02427">
        <ele>1144.59</ele>
        <time>2018-10-20T15:18:47Z</time>
      </trkpt>
      <trkpt lat="47.82356" lon="7.02429">
        <ele>1139.78</ele>
        <time>2018-10-20T15:18:49Z</time>
      </trkpt>
      <trkpt lat="47.82357" lon="7.0243">
        <ele>1144.11</ele>
        <time>2018-10-20T15:18:50Z</time>
      </trkpt>
      <trkpt lat="47.82362" lon="7.02441">
        <ele>1144.59</ele>
        <time>2018-10-20T15:19:04Z</time>
      </trkpt>
      <trkpt lat="47.82362" lon="7.02441">
        <ele>1140.74</ele>
        <time>2018-10-20T15:19:05Z</time>
      </trkpt>
      <trkpt lat="47.82362" lon="7.02441">
        <ele>1144.11</ele>
        <time>2018-10-20T15:19:06Z</time>
      </trkpt>
      <trkpt lat="47.82362" lon="7.02441">
        <ele>1147.95</ele>
        <time>2018-10-20T15:19:09Z</time>
      </trkpt>
      <trkpt lat="47.82361" lon="7.02441">
        <ele>1146.51</ele>
        <time>2018-10-20T15:19:10Z</time>
      </trkpt>
      <trkpt lat="47.82361" lon="7.02441">
        <ele>1144.59</ele>
        <time>2018-10-20T15:19:12Z</time>
      </trkpt>
      <trkpt lat="47.82361" lon="7.02445">
        <ele>1143.63</ele>
        <time>2018-10-20T15:19:18Z</time>
      </trkpt>
      <trkpt lat="47.82361" lon="7.02446">
        <ele>1146.51</ele>
        <time>2018-10-20T15:19:19Z</time>
      </trkpt>
      <trkpt lat="47.82361" lon="7.02448">
        <ele>1145.55</ele>
        <time>2018-10-20T15:19:20Z</time>
      </trkpt>
      <trkpt lat="47.8236" lon="7.02451">
        <ele>1146.51</ele>
        <time>2018-10-20T15:19:22Z</time>
      </trkpt>
      <trkpt lat="47.8236" lon="7.0246">
        <ele>1146.99</ele>
        <time>2018-10-20T15:19:28Z</time>
      </trkpt>
      <trkpt lat="47.8236" lon="7.02463">
        <ele>1147.95</ele>
        <time>2018-10-20T15:19:31Z</time>
      </trkpt>
      <trkpt lat="47.82361" lon="7.02468">
        <ele>1146.03</ele>
        <time>2018-10-20T15:19:34Z</time>
      </trkpt>
      <trkpt lat="47.82361" lon="7.02469">
        <ele>1148.43</ele>
        <time>2018-10-20T15:19:35Z</time>
      </trkpt>
      <trkpt lat="47.82362" lon="7.02484">
        <ele>1150.35</ele>
        <time>2018-10-20T15:19:45Z</time>
      </trkpt>
      <trkpt lat="47.82361" lon="7.02486">
        <ele>1149.87</ele>
        <time>2018-10-20T15:19:47Z</time>
      </trkpt>
      <trkpt lat="47.8236" lon="7.02489">
        <ele>1153.24</ele>
        <time>2018-10-20T15:19:49Z</time>
      </trkpt>
      <trkpt lat="47.82361" lon="7.02496">
        <ele>1153.24</ele>
        <time>2018-10-20T15:19:54Z</time>
      </trkpt>
      <trkpt lat="47.8236" lon="7.025">
        <ele>1154.2</ele>
        <time>2018-10-20T15:19:59Z</time>
      </trkpt>
      <trkpt lat="47.82359" lon="7.02507">
        <ele>1153.72</ele>
        <time>2018-10-20T15:20:04Z</time>
      </trkpt>
      <trkpt lat="47.82357" lon="7.02518">
        <ele>1156.12</ele>
        <time>2018-10-20T15:20:11Z</time>
      </trkpt>
      <trkpt lat="47.82357" lon="7.02519">
        <ele>1154.68</ele>
        <time>2018-10-20T15:20:13Z</time>
      </trkpt>
      <trkpt lat="47.82357" lon="7.02522">
        <ele>1156.12</ele>
        <time>2018-10-20T15:20:15Z</time>
      </trkpt>
      <trkpt lat="47.82358" lon="7.02529">
        <ele>1157.08</ele>
        <time>2018-10-20T15:20:20Z</time>
      </trkpt>
      <trkpt lat="47.82357" lon="7.02534">
        <ele>1157.08</ele>
        <time>2018-10-20T15:20:23Z</time>
      </trkpt>
      <trkpt lat="47.82358" lon="7.0254">
        <ele>1155.64</ele>
        <time>2018-10-20T15:20:26Z</time>
      </trkpt>
      <trkpt lat="47.82358" lon="7.02542">
        <ele>1156.12</ele>
        <time>2018-10-20T15:20:27Z</time>
      </trkpt>
      <trkpt lat="47.82358" lon="7.0255">
        <ele>1157.08</ele>
        <time>2018-10-20T15:20:34Z</time>
      </trkpt>
      <trkpt lat="47.82359" lon="7.02553">
        <ele>1156.6</ele>
        <time>2018-10-20T15:20:36Z</time>
      </trkpt>
      <trkpt lat="47.82359" lon="7.02554">
        <ele>1157.08</ele>
        <time>2018-10-20T15:20:37Z</time>
      </trkpt>
      <trkpt lat="47.82364" lon="7.02567">
        <ele>1157.56</ele>
        <time>2018-10-20T15:20:50Z</time>
      </trkpt>
      <trkpt lat="47.82366" lon="7.02571">
        <ele>1157.56</ele>
        <time>2018-10-20T15:21:04Z</time>
      </trkpt>
      <trkpt lat="47.82369" lon="7.02579">
        <ele>1157.56</ele>
        <time>2018-10-20T15:21:17Z</time>
      </trkpt>
      <trkpt lat="47.82369" lon="7.0258">
        <ele>1158.05</ele>
        <time>2018-10-20T15:21:19Z</time>
      </trkpt>
      <trkpt lat="47.82371" lon="7.02583">
        <ele>1157.56</ele>
        <time>2018-10-20T15:21:21Z</time>
      </trkpt>
      <trkpt lat="47.82373" lon="7.02595">
        <ele>1156.6</ele>
        <time>2018-10-20T15:21:30Z</time>
      </trkpt>
      <trkpt lat="47.82375" lon="7.02601">
        <ele>1156.12</ele>
        <time>2018-10-20T15:21:35Z</time>
      </trkpt>
      <trkpt lat="47.82378" lon="7.02615">
        <ele>1154.2</ele>
        <time>2018-10-20T15:21:43Z</time>
      </trkpt>
      <trkpt lat="47.82381" lon="7.02625">
        <ele>1152.28</ele>
        <time>2018-10-20T15:21:50Z</time>
      </trkpt>
      <trkpt lat="47.82381" lon="7.02632">
        <ele>1150.84</ele>
        <time>2018-10-20T15:21:55Z</time>
      </trkpt>
      <trkpt lat="47.82381" lon="7.02634">
        <ele>1149.87</ele>
        <time>2018-10-20T15:21:57Z</time>
      </trkpt>
      <trkpt lat="47.82386" lon="7.02653">
        <ele>1146.99</ele>
        <time>2018-10-20T15:22:10Z</time>
      </trkpt>
      <trkpt lat="47.82387" lon="7.02656">
        <ele>1146.03</ele>
        <time>2018-10-20T15:22:13Z</time>
      </trkpt>
      <trkpt lat="47.8239" lon="7.02673">
        <ele>1143.63</ele>
        <time>2018-10-20T15:22:23Z</time>
      </trkpt>
      <trkpt lat="47.82392" lon="7.02678">
        <ele>1142.66</ele>
        <time>2018-10-20T15:22:28Z</time>
      </trkpt>
      <trkpt lat="47.82397" lon="7.02683">
        <ele>1142.66</ele>
        <time>2018-10-20T15:22:32Z</time>
      </trkpt>
      <trkpt lat="47.82412" lon="7.02684">
        <ele>1144.59</ele>
        <time>2018-10-20T15:22:47Z</time>
      </trkpt>
      <trkpt lat="47.82413" lon="7.02685">
        <ele>1143.14</ele>
        <time>2018-10-20T15:22:49Z</time>
      </trkpt>
      <trkpt lat="47.82416" lon="7.02685">
        <ele>1143.14</ele>
        <time>2018-10-20T15:22:56Z</time>
      </trkpt>
      <trkpt lat="47.8242" lon="7.02685">
        <ele>1145.07</ele>
        <time>2018-10-20T15:23:01Z</time>
      </trkpt>
      <trkpt lat="47.82437" lon="7.02688">
        <ele>1145.07</ele>
        <time>2018-10-20T15:23:19Z</time>
      </trkpt>
      <trkpt lat="47.82443" lon="7.02691">
        <ele>1146.99</ele>
        <time>2018-10-20T15:23:35Z</time>
      </trkpt>
      <trkpt lat="47.82446" lon="7.02689">
        <ele>1145.55</ele>
        <time>2018-10-20T15:23:59Z</time>
      </trkpt>
      <trkpt lat="47.82448" lon="7.0269">
        <ele>1145.55</ele>
        <time>2018-10-20T15:24:27Z</time>
      </trkpt>
      <trkpt lat="47.82448" lon="7.02689">
        <ele>1145.55</ele>
        <time>2018-10-20T15:24:52Z</time>
      </trkpt>
      <trkpt lat="47.82452" lon="7.02685">
        <ele>1146.03</ele>
        <time>2018-10-20T15:25:16Z</time>
      </trkpt>
      <trkpt lat="47.82449" lon="7.02689">
        <ele>1145.55</ele>
        <time>2018-10-20T15:25:41Z</time>
      </trkpt>
      <trkpt lat="47.82443" lon="7.02701">
        <ele>1144.59</ele>
        <time>2018-10-20T15:25:52Z</time>
      </trkpt>
      <trkpt lat="47.8244" lon="7.0271">
        <ele>1142.66</ele>
        <time>2018-10-20T15:26:05Z</time>
      </trkpt>
      <trkpt lat="47.82439" lon="7.02713">
        <ele>1141.7</ele>
        <time>2018-10-20T15:26:17Z</time>
      </trkpt>
      <trkpt lat="47.82438" lon="7.0272">
        <ele>1140.74</ele>
        <time>2018-10-20T15:26:26Z</time>
      </trkpt>
      <trkpt lat="47.82433" lon="7.02733">
        <ele>1137.86</ele>
        <time>2018-10-20T15:26:38Z</time>
      </trkpt>
      <trkpt lat="47.82432" lon="7.0275">
        <ele>1134.97</ele>
        <time>2018-10-20T15:26:50Z</time>
      </trkpt>
      <trkpt lat="47.82432" lon="7.02752">
        <ele>1134.49</ele>
        <time>2018-10-20T15:26:51Z</time>
      </trkpt>
      <trkpt lat="47.82428" lon="7.0277">
        <ele>1130.65</ele>
        <time>2018-10-20T15:27:05Z</time>
      </trkpt>
      <trkpt lat="47.82427" lon="7.02774">
        <ele>1130.17</ele>
        <time>2018-10-20T15:27:07Z</time>
      </trkpt>
      <trkpt lat="47.82426" lon="7.02787">
        <ele>1127.76</ele>
        <time>2018-10-20T15:27:17Z</time>
      </trkpt>
      <trkpt lat="47.82427" lon="7.02789">
        <ele>1125.84</ele>
        <time>2018-10-20T15:27:30Z</time>
      </trkpt>
      <trkpt lat="47.82427" lon="7.02802">
        <ele>1123.44</ele>
        <time>2018-10-20T15:27:41Z</time>
      </trkpt>
      <trkpt lat="47.8243" lon="7.0282">
        <ele>1120.55</ele>
        <time>2018-10-20T15:27:51Z</time>
      </trkpt>
      <trkpt lat="47.82432" lon="7.02833">
        <ele>1117.19</ele>
        <time>2018-10-20T15:28:05Z</time>
      </trkpt>
      <trkpt lat="47.82432" lon="7.02832">
        <ele>1118.15</ele>
        <time>2018-10-20T15:28:24Z</time>
      </trkpt>
      <trkpt lat="47.82435" lon="7.02838">
        <ele>1117.19</ele>
        <time>2018-10-20T15:28:30Z</time>
      </trkpt>
      <trkpt lat="47.82443" lon="7.02847">
        <ele>1113.34</ele>
        <time>2018-10-20T15:28:40Z</time>
      </trkpt>
      <trkpt lat="47.82444" lon="7.02852">
        <ele>1113.34</ele>
        <time>2018-10-20T15:28:42Z</time>
      </trkpt>
      <trkpt lat="47.82445" lon="7.02859">
        <ele>1110.94</ele>
        <time>2018-10-20T15:28:54Z</time>
      </trkpt>
      <trkpt lat="47.82445" lon="7.02859">
        <ele>1110.94</ele>
        <time>2018-10-20T15:29:11Z</time>
      </trkpt>
      <trkpt lat="47.82445" lon="7.02861">
        <ele>1110.94</ele>
        <time>2018-10-20T15:29:35Z</time>
      </trkpt>
      <trkpt lat="47.82444" lon="7.02861">
        <ele>1110.94</ele>
        <time>2018-10-20T15:29:53Z</time>
      </trkpt>
      <trkpt lat="47.82445" lon="7.02862">
        <ele>1110.94</ele>
        <time>2018-10-20T15:30:17Z</time>
      </trkpt>
      <trkpt lat="47.82444" lon="7.02862">
        <ele>1111.42</ele>
        <time>2018-10-20T15:30:42Z</time>
      </trkpt>
      <trkpt lat="47.82444" lon="7.02866">
        <ele>1109.98</ele>
        <time>2018-10-20T15:31:00Z</time>
      </trkpt>
      <trkpt lat="47.82445" lon="7.02868">
        <ele>1109.98</ele>
        <time>2018-10-20T15:31:23Z</time>
      </trkpt>
      <trkpt lat="47.82445" lon="7.02876">
        <ele>1109.98</ele>
        <time>2018-10-20T15:31:41Z</time>
      </trkpt>
      <trkpt lat="47.82434" lon="7.0288">
        <ele>1109.5</ele>
        <time>2018-10-20T15:31:54Z</time>
      </trkpt>
      <trkpt lat="47.82435" lon="7.02879">
        <ele>1109.5</ele>
        <time>2018-10-20T15:32:05Z</time>
      </trkpt>
      <trkpt lat="47.82436" lon="7.0287">
        <ele>1109.98</ele>
        <time>2018-10-20T15:32:21Z</time>
      </trkpt>
      <trkpt lat="47.8243" lon="7.02866">
        <ele>1113.34</ele>
        <time>2018-10-20T15:35:35Z</time>
      </trkpt>
      <trkpt lat="47.82431" lon="7.02871">
        <ele>1113.34</ele>
        <time>2018-10-20T15:35:56Z</time>
      </trkpt>
      <trkpt lat="47.82428" lon="7.02869">
        <ele>1107.1</ele>
        <time>2018-10-20T15:36:07Z</time>
      </trkpt>
      <trkpt lat="47.82428" lon="7.02869">
        <ele>1112.86</ele>
        <time>2018-10-20T15:36:08Z</time>
      </trkpt>
      <trkpt lat="47.82426" lon="7.02867">
        <ele>1111.9</ele>
        <time>2018-10-20T15:36:15Z</time>
      </trkpt>
      <trkpt lat="47.82442" lon="7.02872">
        <ele>1109.98</ele>
        <time>2018-10-20T15:42:36Z</time>
      </trkpt>
      <trkpt lat="47.82435" lon="7.02875">
        <ele>1110.46</ele>
        <time>2018-10-20T15:43:03Z</time>
      </trkpt>
      <trkpt lat="47.82439" lon="7.02863">
        <ele>1110.46</ele>
        <time>2018-10-20T15:43:26Z</time>
      </trkpt>
      <trkpt lat="47.82438" lon="7.02869">
        <ele>1109.98</ele>
        <time>2018-10-20T15:43:52Z</time>
      </trkpt>
      <trkpt lat="47.82434" lon="7.02879">
        <ele>1108.54</ele>
        <time>2018-10-20T15:44:11Z</time>
      </trkpt>
      <trkpt lat="47.82433" lon="7.02879">
        <ele>1109.98</ele>
        <time>2018-10-20T15:44:24Z</time>
      </trkpt>
      <trkpt lat="47.82426" lon="7.02871">
        <ele>1109.98</ele>
        <time>2018-10-20T15:44:35Z</time>
      </trkpt>
      <trkpt lat="47.82425" lon="7.02871">
        <ele>1109.02</ele>
        <time>2018-10-20T15:44:58Z</time>
      </trkpt>
      <trkpt lat="47.82419" lon="7.02867">
        <ele>1109.98</ele>
        <time>2018-10-20T15:45:11Z</time>
      </trkpt>
      <trkpt lat="47.82416" lon="7.02868">
        <ele>1108.06</ele>
        <time>2018-10-20T15:45:19Z</time>
      </trkpt>
      <trkpt lat="47.82417" lon="7.02869">
        <ele>1109.02</ele>
        <time>2018-10-20T15:45:35Z</time>
      </trkpt>
      <trkpt lat="47.82417" lon="7.02871">
        <ele>1109.02</ele>
        <time>2018-10-20T15:45:55Z</time>
      </trkpt>
      <trkpt lat="47.82417" lon="7.0287">
        <ele>1109.5</ele>
        <time>2018-10-20T15:46:12Z</time>
      </trkpt>
      <trkpt lat="47.82418" lon="7.02868">
        <ele>1106.13</ele>
        <time>2018-10-20T15:46:28Z</time>
      </trkpt>
      <trkpt lat="47.82418" lon="7.02868">
        <ele>1115.27</ele>
        <time>2018-10-20T15:46:29Z</time>
      </trkpt>
      <trkpt lat="47.82418" lon="7.02868">
        <ele>1110.94</ele>
        <time>2018-10-20T15:46:30Z</time>
      </trkpt>
      <trkpt lat="47.82416" lon="7.02857">
        <ele>1110.94</ele>
        <time>2018-10-20T15:46:45Z</time>
      </trkpt>
      <trkpt lat="47.82416" lon="7.02857">
        <ele>1110.94</ele>
        <time>2018-10-20T15:46:47Z</time>
      </trkpt>
      <trkpt lat="47.82406" lon="7.0285">
        <ele>1110.94</ele>
        <time>2018-10-20T15:46:57Z</time>
      </trkpt>
      <trkpt lat="47.82392" lon="7.02841">
        <ele>1110.94</ele>
        <time>2018-10-20T15:47:10Z</time>
      </trkpt>
      <trkpt lat="47.82377" lon="7.02835">
        <ele>1109.02</ele>
        <time>2018-10-20T15:47:22Z</time>
      </trkpt>
      <trkpt lat="47.82357" lon="7.02835">
        <ele>1107.1</ele>
        <time>2018-10-20T15:47:37Z</time>
      </trkpt>
      <trkpt lat="47.82356" lon="7.02835">
        <ele>1107.1</ele>
        <time>2018-10-20T15:47:38Z</time>
      </trkpt>
      <trkpt lat="47.82344" lon="7.02836">
        <ele>1105.17</ele>
        <time>2018-10-20T15:47:50Z</time>
      </trkpt>
      <trkpt lat="47.82331" lon="7.02832">
        <ele>1103.25</ele>
        <time>2018-10-20T15:48:01Z</time>
      </trkpt>
      <trkpt lat="47.82315" lon="7.02836">
        <ele>1101.81</ele>
        <time>2018-10-20T15:48:14Z</time>
      </trkpt>
      <trkpt lat="47.82311" lon="7.02837">
        <ele>1101.81</ele>
        <time>2018-10-20T15:48:18Z</time>
      </trkpt>
      <trkpt lat="47.82296" lon="7.0284">
        <ele>1099.89</ele>
        <time>2018-10-20T15:48:29Z</time>
      </trkpt>
      <trkpt lat="47.82283" lon="7.02841">
        <ele>1098.92</ele>
        <time>2018-10-20T15:48:40Z</time>
      </trkpt>
      <trkpt lat="47.8228" lon="7.02842">
        <ele>1097.96</ele>
        <time>2018-10-20T15:48:43Z</time>
      </trkpt>
      <trkpt lat="47.82266" lon="7.02848">
        <ele>1095.56</ele>
        <time>2018-10-20T15:48:55Z</time>
      </trkpt>
      <trkpt lat="47.82246" lon="7.02852">
        <ele>1092.2</ele>
        <time>2018-10-20T15:49:09Z</time>
      </trkpt>
      <trkpt lat="47.82232" lon="7.02861">
        <ele>1089.79</ele>
        <time>2018-10-20T15:49:21Z</time>
      </trkpt>
      <trkpt lat="47.82228" lon="7.02865">
        <ele>1088.83</ele>
        <time>2018-10-20T15:49:27Z</time>
      </trkpt>
      <trkpt lat="47.82216" lon="7.02873">
        <ele>1086.91</ele>
        <time>2018-10-20T15:49:37Z</time>
      </trkpt>
      <trkpt lat="47.82215" lon="7.02873">
        <ele>1086.43</ele>
        <time>2018-10-20T15:49:38Z</time>
      </trkpt>
      <trkpt lat="47.82208" lon="7.0288">
        <ele>1084.5</ele>
        <time>2018-10-20T15:49:44Z</time>
      </trkpt>
      <trkpt lat="47.822" lon="7.02887">
        <ele>1083.06</ele>
        <time>2018-10-20T15:49:50Z</time>
      </trkpt>
      <trkpt lat="47.82189" lon="7.02893">
        <ele>1081.62</ele>
        <time>2018-10-20T15:49:59Z</time>
      </trkpt>
      <trkpt lat="47.82185" lon="7.02896">
        <ele>1080.66</ele>
        <time>2018-10-20T15:50:12Z</time>
      </trkpt>
      <trkpt lat="47.82184" lon="7.02898">
        <ele>1080.18</ele>
        <time>2018-10-20T15:50:13Z</time>
      </trkpt>
      <trkpt lat="47.82178" lon="7.02903">
        <ele>1078.26</ele>
        <time>2018-10-20T15:50:16Z</time>
      </trkpt>
      <trkpt lat="47.82172" lon="7.02907">
        <ele>1075.85</ele>
        <time>2018-10-20T15:50:26Z</time>
      </trkpt>
      <trkpt lat="47.82162" lon="7.02915">
        <ele>1073.93</ele>
        <time>2018-10-20T15:50:35Z</time>
      </trkpt>
      <trkpt lat="47.82157" lon="7.02922">
        <ele>1072.49</ele>
        <time>2018-10-20T15:50:48Z</time>
      </trkpt>
      <trkpt lat="47.82152" lon="7.02926">
        <ele>1071.05</ele>
        <time>2018-10-20T15:50:54Z</time>
      </trkpt>
      <trkpt lat="47.8214" lon="7.02939">
        <ele>1068.64</ele>
        <time>2018-10-20T15:51:06Z</time>
      </trkpt>
      <trkpt lat="47.82139" lon="7.02941">
        <ele>1068.64</ele>
        <time>2018-10-20T15:51:07Z</time>
      </trkpt>
      <trkpt lat="47.82136" lon="7.02946">
        <ele>1067.2</ele>
        <time>2018-10-20T15:51:10Z</time>
      </trkpt>
      <trkpt lat="47.82123" lon="7.0296">
        <ele>1063.84</ele>
        <time>2018-10-20T15:51:24Z</time>
      </trkpt>
      <trkpt lat="47.82118" lon="7.02967">
        <ele>1063.36</ele>
        <time>2018-10-20T15:51:29Z</time>
      </trkpt>
      <trkpt lat="47.8211" lon="7.02979">
        <ele>1061.91</ele>
        <time>2018-10-20T15:51:40Z</time>
      </trkpt>
      <trkpt lat="47.82101" lon="7.02991">
        <ele>1058.55</ele>
        <time>2018-10-20T15:51:49Z</time>
      </trkpt>
      <trkpt lat="47.82089" lon="7.03011">
        <ele>1056.63</ele>
        <time>2018-10-20T15:52:00Z</time>
      </trkpt>
      <trkpt lat="47.82088" lon="7.03012">
        <ele>1057.11</ele>
        <time>2018-10-20T15:52:01Z</time>
      </trkpt>
      <trkpt lat="47.82082" lon="7.03023">
        <ele>1054.7</ele>
        <time>2018-10-20T15:52:10Z</time>
      </trkpt>
      <trkpt lat="47.82081" lon="7.03026">
        <ele>1054.7</ele>
        <time>2018-10-20T15:52:12Z</time>
      </trkpt>
      <trkpt lat="47.82069" lon="7.03046">
        <ele>1051.82</ele>
        <time>2018-10-20T15:52:24Z</time>
      </trkpt>
      <trkpt lat="47.8206" lon="7.03064">
        <ele>1048.45</ele>
        <time>2018-10-20T15:52:34Z</time>
      </trkpt>
      <trkpt lat="47.8205" lon="7.03081">
        <ele>1046.05</ele>
        <time>2018-10-20T15:52:45Z</time>
      </trkpt>
      <trkpt lat="47.8204" lon="7.03105">
        <ele>1042.21</ele>
        <time>2018-10-20T15:52:56Z</time>
      </trkpt>
      <trkpt lat="47.82038" lon="7.03111">
        <ele>1043.65</ele>
        <time>2018-10-20T15:53:06Z</time>
      </trkpt>
      <trkpt lat="47.8203" lon="7.03124">
        <ele>1041.25</ele>
        <time>2018-10-20T15:53:15Z</time>
      </trkpt>
      <trkpt lat="47.8203" lon="7.03125">
        <ele>1040.76</ele>
        <time>2018-10-20T15:53:17Z</time>
      </trkpt>
      <trkpt lat="47.82036" lon="7.03128">
        <ele>1038.84</ele>
        <time>2018-10-20T15:53:26Z</time>
      </trkpt>
      <trkpt lat="47.82042" lon="7.03124">
        <ele>1037.88</ele>
        <time>2018-10-20T15:53:35Z</time>
      </trkpt>
      <trkpt lat="47.82045" lon="7.03128">
        <ele>1036.92</ele>
        <time>2018-10-20T15:53:40Z</time>
      </trkpt>
      <trkpt lat="47.82039" lon="7.03139">
        <ele>1035.48</ele>
        <time>2018-10-20T15:53:46Z</time>
      </trkpt>
      <trkpt lat="47.82035" lon="7.03147">
        <ele>1034.52</ele>
        <time>2018-10-20T15:53:51Z</time>
      </trkpt>
      <trkpt lat="47.82034" lon="7.03163">
        <ele>1031.63</ele>
        <time>2018-10-20T15:53:58Z</time>
      </trkpt>
      <trkpt lat="47.82034" lon="7.03167">
        <ele>1031.15</ele>
        <time>2018-10-20T15:54:00Z</time>
      </trkpt>
      <trkpt lat="47.82033" lon="7.03174">
        <ele>1030.19</ele>
        <time>2018-10-20T15:54:03Z</time>
      </trkpt>
      <trkpt lat="47.82028" lon="7.03193">
        <ele>1027.31</ele>
        <time>2018-10-20T15:54:12Z</time>
      </trkpt>
      <trkpt lat="47.82027" lon="7.03196">
        <ele>1027.31</ele>
        <time>2018-10-20T15:54:14Z</time>
      </trkpt>
      <trkpt lat="47.82023" lon="7.03211">
        <ele>1024.9</ele>
        <time>2018-10-20T15:54:27Z</time>
      </trkpt>
      <trkpt lat="47.82019" lon="7.03226">
        <ele>1022.98</ele>
        <time>2018-10-20T15:54:36Z</time>
      </trkpt>
      <trkpt lat="47.82016" lon="7.03241">
        <ele>1021.06</ele>
        <time>2018-10-20T15:54:44Z</time>
      </trkpt>
      <trkpt lat="47.82014" lon="7.03255">
        <ele>1018.17</ele>
        <time>2018-10-20T15:54:52Z</time>
      </trkpt>
      <trkpt lat="47.8201" lon="7.03272">
        <ele>1015.77</ele>
        <time>2018-10-20T15:55:02Z</time>
      </trkpt>
      <trkpt lat="47.82008" lon="7.03277">
        <ele>1014.81</ele>
        <time>2018-10-20T15:55:05Z</time>
      </trkpt>
      <trkpt lat="47.82007" lon="7.03292">
        <ele>1011.93</ele>
        <time>2018-10-20T15:55:13Z</time>
      </trkpt>
      <trkpt lat="47.82007" lon="7.03295">
        <ele>1011.93</ele>
        <time>2018-10-20T15:55:14Z</time>
      </trkpt>
      <trkpt lat="47.82002" lon="7.03312">
        <ele>1008.08</ele>
        <time>2018-10-20T15:55:19Z</time>
      </trkpt>
      <trkpt lat="47.82001" lon="7.03315">
        <ele>1007.6</ele>
        <time>2018-10-20T15:55:20Z</time>
      </trkpt>
      <trkpt lat="47.81994" lon="7.0332">
        <ele>1005.2</ele>
        <time>2018-10-20T15:55:32Z</time>
      </trkpt>
      <trkpt lat="47.81991" lon="7.03335">
        <ele>1002.31</ele>
        <time>2018-10-20T15:55:41Z</time>
      </trkpt>
      <trkpt lat="47.81977" lon="7.03345">
        <ele>1000.87</ele>
        <time>2018-10-20T15:55:56Z</time>
      </trkpt>
      <trkpt lat="47.81969" lon="7.03345">
        <ele>997.99</ele>
        <time>2018-10-20T15:56:11Z</time>
      </trkpt>
      <trkpt lat="47.81966" lon="7.03345">
        <ele>997.51</ele>
        <time>2018-10-20T15:56:17Z</time>
      </trkpt>
      <trkpt lat="47.81963" lon="7.03346">
        <ele>997.02</ele>
        <time>2018-10-20T15:56:19Z</time>
      </trkpt>
      <trkpt lat="47.81939" lon="7.03375">
        <ele>997.51</ele>
        <time>2018-10-20T15:56:34Z</time>
      </trkpt>
      <trkpt lat="47.81928" lon="7.03387">
        <ele>997.99</ele>
        <time>2018-10-20T15:56:49Z</time>
      </trkpt>
      <trkpt lat="47.81925" lon="7.03389">
        <ele>995.58</ele>
        <time>2018-10-20T15:56:58Z</time>
      </trkpt>
      <trkpt lat="47.81919" lon="7.0339">
        <ele>994.62</ele>
        <time>2018-10-20T15:57:02Z</time>
      </trkpt>
      <trkpt lat="47.81896" lon="7.03415">
        <ele>992.22</ele>
        <time>2018-10-20T15:57:18Z</time>
      </trkpt>
      <trkpt lat="47.8189" lon="7.03429">
        <ele>991.26</ele>
        <time>2018-10-20T15:57:30Z</time>
      </trkpt>
      <trkpt lat="47.81893" lon="7.03429">
        <ele>991.26</ele>
        <time>2018-10-20T15:57:33Z</time>
      </trkpt>
      <trkpt lat="47.81911" lon="7.03418">
        <ele>992.22</ele>
        <time>2018-10-20T15:57:51Z</time>
      </trkpt>
      <trkpt lat="47.81919" lon="7.03408">
        <ele>990.78</ele>
        <time>2018-10-20T15:57:59Z</time>
      </trkpt>
      <trkpt lat="47.81922" lon="7.03406">
        <ele>990.78</ele>
        <time>2018-10-20T15:58:01Z</time>
      </trkpt>
      <trkpt lat="47.81946" lon="7.0339">
        <ele>988.37</ele>
        <time>2018-10-20T15:58:21Z</time>
      </trkpt>
      <trkpt lat="47.81967" lon="7.03389">
        <ele>986.93</ele>
        <time>2018-10-20T15:58:40Z</time>
      </trkpt>
      <trkpt lat="47.81988" lon="7.03388">
        <ele>986.93</ele>
        <time>2018-10-20T15:58:58Z</time>
      </trkpt>
      <trkpt lat="47.81995" lon="7.03394">
        <ele>985.01</ele>
        <time>2018-10-20T15:59:06Z</time>
      </trkpt>
      <trkpt lat="47.81982" lon="7.03396">
        <ele>981.16</ele>
        <time>2018-10-20T15:59:24Z</time>
      </trkpt>
      <trkpt lat="47.81974" lon="7.03396">
        <ele>980.2</ele>
        <time>2018-10-20T15:59:32Z</time>
      </trkpt>
      <trkpt lat="47.81961" lon="7.03407">
        <ele>977.32</ele>
        <time>2018-10-20T15:59:46Z</time>
      </trkpt>
      <trkpt lat="47.81952" lon="7.03415">
        <ele>976.36</ele>
        <time>2018-10-20T16:00:00Z</time>
      </trkpt>
      <trkpt lat="47.81949" lon="7.03421">
        <ele>975.88</ele>
        <time>2018-10-20T16:00:03Z</time>
      </trkpt>
      <trkpt lat="47.81937" lon="7.03439">
        <ele>973.47</ele>
        <time>2018-10-20T16:00:18Z</time>
      </trkpt>
      <trkpt lat="47.81933" lon="7.03457">
        <ele>971.07</ele>
        <time>2018-10-20T16:00:24Z</time>
      </trkpt>
      <trkpt lat="47.8192" lon="7.03494">
        <ele>968.18</ele>
        <time>2018-10-20T16:00:36Z</time>
      </trkpt>
      <trkpt lat="47.8191" lon="7.03525">
        <ele>966.26</ele>
        <time>2018-10-20T16:00:50Z</time>
      </trkpt>
      <trkpt lat="47.81908" lon="7.03545">
        <ele>965.3</ele>
        <time>2018-10-20T16:01:00Z</time>
      </trkpt>
      <trkpt lat="47.81912" lon="7.03565">
        <ele>962.9</ele>
        <time>2018-10-20T16:01:13Z</time>
      </trkpt>
      <trkpt lat="47.81907" lon="7.03595">
        <ele>961.46</ele>
        <time>2018-10-20T16:01:31Z</time>
      </trkpt>
      <trkpt lat="47.81901" lon="7.03614">
        <ele>959.53</ele>
        <time>2018-10-20T16:01:46Z</time>
      </trkpt>
      <trkpt lat="47.81901" lon="7.0363">
        <ele>958.57</ele>
        <time>2018-10-20T16:01:56Z</time>
      </trkpt>
      <trkpt lat="47.81896" lon="7.03648">
        <ele>956.17</ele>
        <time>2018-10-20T16:02:10Z</time>
      </trkpt>
      <trkpt lat="47.81884" lon="7.0365">
        <ele>955.69</ele>
        <time>2018-10-20T16:02:24Z</time>
      </trkpt>
      <trkpt lat="47.81879" lon="7.03642">
        <ele>960.01</ele>
        <time>2018-10-20T16:02:32Z</time>
      </trkpt>
      <trkpt lat="47.81879" lon="7.03642">
        <ele>957.13</ele>
        <time>2018-10-20T16:02:33Z</time>
      </trkpt>
      <trkpt lat="47.81876" lon="7.03636">
        <ele>960.98</ele>
        <time>2018-10-20T16:02:38Z</time>
      </trkpt>
      <trkpt lat="47.81876" lon="7.03635">
        <ele>958.09</ele>
        <time>2018-10-20T16:02:39Z</time>
      </trkpt>
      <trkpt lat="47.81872" lon="7.03618">
        <ele>955.21</ele>
        <time>2018-10-20T16:02:49Z</time>
      </trkpt>
      <trkpt lat="47.81866" lon="7.03602">
        <ele>956.17</ele>
        <time>2018-10-20T16:03:04Z</time>
      </trkpt>
      <trkpt lat="47.81854" lon="7.03593">
        <ele>952.8</ele>
        <time>2018-10-20T16:03:19Z</time>
      </trkpt>
      <trkpt lat="47.81846" lon="7.03577">
        <ele>951.36</ele>
        <time>2018-10-20T16:03:29Z</time>
      </trkpt>
      <trkpt lat="47.81833" lon="7.0355">
        <ele>950.4</ele>
        <time>2018-10-20T16:03:45Z</time>
      </trkpt>
      <trkpt lat="47.81816" lon="7.03536">
        <ele>947.04</ele>
        <time>2018-10-20T16:03:59Z</time>
      </trkpt>
      <trkpt lat="47.81806" lon="7.03518">
        <ele>944.15</ele>
        <time>2018-10-20T16:04:13Z</time>
      </trkpt>
      <trkpt lat="47.8179" lon="7.03505">
        <ele>941.27</ele>
        <time>2018-10-20T16:04:28Z</time>
      </trkpt>
      <trkpt lat="47.81777" lon="7.03494">
        <ele>937.9</ele>
        <time>2018-10-20T16:04:39Z</time>
      </trkpt>
      <trkpt lat="47.81757" lon="7.03485">
        <ele>936.46</ele>
        <time>2018-10-20T16:04:53Z</time>
      </trkpt>
      <trkpt lat="47.81743" lon="7.0348">
        <ele>933.58</ele>
        <time>2018-10-20T16:05:05Z</time>
      </trkpt>
      <trkpt lat="47.81726" lon="7.03465">
        <ele>932.14</ele>
        <time>2018-10-20T16:05:22Z</time>
      </trkpt>
      <trkpt lat="47.81718" lon="7.03465">
        <ele>931.17</ele>
        <time>2018-10-20T16:05:27Z</time>
      </trkpt>
      <trkpt lat="47.81696" lon="7.03465">
        <ele>928.29</ele>
        <time>2018-10-20T16:05:44Z</time>
      </trkpt>
      <trkpt lat="47.81674" lon="7.03469">
        <ele>925.89</ele>
        <time>2018-10-20T16:06:02Z</time>
      </trkpt>
      <trkpt lat="47.81656" lon="7.03475">
        <ele>923</ele>
        <time>2018-10-20T16:06:19Z</time>
      </trkpt>
      <trkpt lat="47.81639" lon="7.03487">
        <ele>921.08</ele>
        <time>2018-10-20T16:06:32Z</time>
      </trkpt>
      <trkpt lat="47.81619" lon="7.03497">
        <ele>918.2</ele>
        <time>2018-10-20T16:06:51Z</time>
      </trkpt>
      <trkpt lat="47.81612" lon="7.035">
        <ele>916.75</ele>
        <time>2018-10-20T16:07:03Z</time>
      </trkpt>
      <trkpt lat="47.81598" lon="7.03502">
        <ele>914.35</ele>
        <time>2018-10-20T16:07:17Z</time>
      </trkpt>
      <trkpt lat="47.81581" lon="7.03507">
        <ele>911.95</ele>
        <time>2018-10-20T16:07:31Z</time>
      </trkpt>
      <trkpt lat="47.81563" lon="7.03516">
        <ele>910.99</ele>
        <time>2018-10-20T16:07:47Z</time>
      </trkpt>
      <trkpt lat="47.81556" lon="7.03521">
        <ele>908.58</ele>
        <time>2018-10-20T16:07:54Z</time>
      </trkpt>
      <trkpt lat="47.81532" lon="7.03534">
        <ele>905.7</ele>
        <time>2018-10-20T16:08:10Z</time>
      </trkpt>
      <trkpt lat="47.81522" lon="7.03535">
        <ele>903.78</ele>
        <time>2018-10-20T16:08:17Z</time>
      </trkpt>
      <trkpt lat="47.81516" lon="7.03533">
        <ele>904.26</ele>
        <time>2018-10-20T16:08:21Z</time>
      </trkpt>
      <trkpt lat="47.81508" lon="7.03528">
        <ele>903.3</ele>
        <time>2018-10-20T16:08:28Z</time>
      </trkpt>
      <trkpt lat="47.81504" lon="7.03524">
        <ele>902.82</ele>
        <time>2018-10-20T16:08:44Z</time>
      </trkpt>
      <trkpt lat="47.81497" lon="7.03519">
        <ele>901.37</ele>
        <time>2018-10-20T16:08:57Z</time>
      </trkpt>
      <trkpt lat="47.81483" lon="7.03516">
        <ele>900.41</ele>
        <time>2018-10-20T16:09:10Z</time>
      </trkpt>
      <trkpt lat="47.81478" lon="7.03511">
        <ele>899.45</ele>
        <time>2018-10-20T16:09:17Z</time>
      </trkpt>
      <trkpt lat="47.81474" lon="7.03503">
        <ele>898.97</ele>
        <time>2018-10-20T16:09:23Z</time>
      </trkpt>
      <trkpt lat="47.81469" lon="7.03504">
        <ele>898.49</ele>
        <time>2018-10-20T16:09:26Z</time>
      </trkpt>
      <trkpt lat="47.81462" lon="7.03507">
        <ele>898.01</ele>
        <time>2018-10-20T16:09:30Z</time>
      </trkpt>
      <trkpt lat="47.81453" lon="7.03509">
        <ele>896.09</ele>
        <time>2018-10-20T16:09:36Z</time>
      </trkpt>
      <trkpt lat="47.81449" lon="7.03506">
        <ele>896.09</ele>
        <time>2018-10-20T16:09:40Z</time>
      </trkpt>
      <trkpt lat="47.8144" lon="7.03505">
        <ele>895.12</ele>
        <time>2018-10-20T16:09:48Z</time>
      </trkpt>
      <trkpt lat="47.81429" lon="7.03503">
        <ele>893.2</ele>
        <time>2018-10-20T16:09:59Z</time>
      </trkpt>
      <trkpt lat="47.81412" lon="7.03491">
        <ele>891.28</ele>
        <time>2018-10-20T16:10:13Z</time>
      </trkpt>
      <trkpt lat="47.81409" lon="7.03489">
        <ele>890.32</ele>
        <time>2018-10-20T16:10:16Z</time>
      </trkpt>
      <trkpt lat="47.81397" lon="7.03481">
        <ele>889.36</ele>
        <time>2018-10-20T16:10:27Z</time>
      </trkpt>
      <trkpt lat="47.81394" lon="7.0348">
        <ele>889.36</ele>
        <time>2018-10-20T16:10:29Z</time>
      </trkpt>
      <trkpt lat="47.81383" lon="7.03476">
        <ele>888.4</ele>
        <time>2018-10-20T16:10:35Z</time>
      </trkpt>
      <trkpt lat="47.81361" lon="7.03472">
        <ele>887.43</ele>
        <time>2018-10-20T16:10:48Z</time>
      </trkpt>
      <trkpt lat="47.81354" lon="7.0346">
        <ele>884.55</ele>
        <time>2018-10-20T16:10:58Z</time>
      </trkpt>
      <trkpt lat="47.81349" lon="7.03458">
        <ele>883.11</ele>
        <time>2018-10-20T16:11:15Z</time>
      </trkpt>
      <trkpt lat="47.81341" lon="7.03447">
        <ele>879.74</ele>
        <time>2018-10-20T16:11:29Z</time>
      </trkpt>
      <trkpt lat="47.81326" lon="7.03429">
        <ele>877.82</ele>
        <time>2018-10-20T16:11:42Z</time>
      </trkpt>
      <trkpt lat="47.81316" lon="7.03404">
        <ele>875.9</ele>
        <time>2018-10-20T16:11:56Z</time>
      </trkpt>
      <trkpt lat="47.81296" lon="7.03396">
        <ele>874.46</ele>
        <time>2018-10-20T16:12:13Z</time>
      </trkpt>
      <trkpt lat="47.81294" lon="7.03394">
        <ele>874.46</ele>
        <time>2018-10-20T16:12:15Z</time>
      </trkpt>
      <trkpt lat="47.8128" lon="7.0339">
        <ele>871.09</ele>
        <time>2018-10-20T16:12:28Z</time>
      </trkpt>
      <trkpt lat="47.81266" lon="7.03386">
        <ele>868.21</ele>
        <time>2018-10-20T16:12:37Z</time>
      </trkpt>
      <trkpt lat="47.81257" lon="7.03384">
        <ele>865.8</ele>
        <time>2018-10-20T16:12:50Z</time>
      </trkpt>
      <trkpt lat="47.81252" lon="7.03379">
        <ele>863.4</ele>
        <time>2018-10-20T16:12:57Z</time>
      </trkpt>
      <trkpt lat="47.81242" lon="7.03375">
        <ele>864.36</ele>
        <time>2018-10-20T16:13:07Z</time>
      </trkpt>
      <trkpt lat="47.81231" lon="7.03373">
        <ele>863.88</ele>
        <time>2018-10-20T16:13:22Z</time>
      </trkpt>
      <trkpt lat="47.81218" lon="7.03366">
        <ele>864.36</ele>
        <time>2018-10-20T16:13:38Z</time>
      </trkpt>
      <trkpt lat="47.81216" lon="7.03362">
        <ele>863.88</ele>
        <time>2018-10-20T16:13:40Z</time>
      </trkpt>
      <trkpt lat="47.81199" lon="7.03352">
        <ele>861.96</ele>
        <time>2018-10-20T16:13:54Z</time>
      </trkpt>
      <trkpt lat="47.81196" lon="7.03349">
        <ele>862.44</ele>
        <time>2018-10-20T16:13:57Z</time>
      </trkpt>
      <trkpt lat="47.8118" lon="7.03352">
        <ele>860.52</ele>
        <time>2018-10-20T16:14:05Z</time>
      </trkpt>
      <trkpt lat="47.81166" lon="7.0336">
        <ele>859.56</ele>
        <time>2018-10-20T16:14:20Z</time>
      </trkpt>
      <trkpt lat="47.81162" lon="7.0339">
        <ele>856.19</ele>
        <time>2018-10-20T16:14:32Z</time>
      </trkpt>
      <trkpt lat="47.81169" lon="7.03418">
        <ele>853.79</ele>
        <time>2018-10-20T16:14:52Z</time>
      </trkpt>
      <trkpt lat="47.81157" lon="7.03464">
        <ele>853.31</ele>
        <time>2018-10-20T16:15:08Z</time>
      </trkpt>
      <trkpt lat="47.81156" lon="7.03483">
        <ele>852.83</ele>
        <time>2018-10-20T16:15:18Z</time>
      </trkpt>
      <trkpt lat="47.8115" lon="7.03507">
        <ele>850.9</ele>
        <time>2018-10-20T16:15:30Z</time>
      </trkpt>
      <trkpt lat="47.8114" lon="7.03532">
        <ele>849.46</ele>
        <time>2018-10-20T16:15:45Z</time>
      </trkpt>
      <trkpt lat="47.8114" lon="7.03546">
        <ele>846.58</ele>
        <time>2018-10-20T16:15:55Z</time>
      </trkpt>
      <trkpt lat="47.81135" lon="7.0358">
        <ele>844.66</ele>
        <time>2018-10-20T16:16:12Z</time>
      </trkpt>
      <trkpt lat="47.81121" lon="7.03598">
        <ele>842.73</ele>
        <time>2018-10-20T16:16:26Z</time>
      </trkpt>
      <trkpt lat="47.81113" lon="7.03598">
        <ele>841.29</ele>
        <time>2018-10-20T16:16:33Z</time>
      </trkpt>
      <trkpt lat="47.81101" lon="7.03609">
        <ele>838.41</ele>
        <time>2018-10-20T16:16:43Z</time>
      </trkpt>
      <trkpt lat="47.81094" lon="7.03616">
        <ele>837.93</ele>
        <time>2018-10-20T16:16:50Z</time>
      </trkpt>
      <trkpt lat="47.81084" lon="7.03633">
        <ele>835.52</ele>
        <time>2018-10-20T16:17:06Z</time>
      </trkpt>
      <trkpt lat="47.81076" lon="7.03651">
        <ele>833.12</ele>
        <time>2018-10-20T16:17:15Z</time>
      </trkpt>
      <trkpt lat="47.81071" lon="7.03665">
        <ele>832.16</ele>
        <time>2018-10-20T16:17:21Z</time>
      </trkpt>
      <trkpt lat="47.81064" lon="7.03697">
        <ele>829.27</ele>
        <time>2018-10-20T16:17:36Z</time>
      </trkpt>
      <trkpt lat="47.81058" lon="7.03716">
        <ele>824.47</ele>
        <time>2018-10-20T16:17:44Z</time>
      </trkpt>
      <trkpt lat="47.81057" lon="7.03718">
        <ele>830.72</ele>
        <time>2018-10-20T16:17:45Z</time>
      </trkpt>
      <trkpt lat="47.81057" lon="7.03721">
        <ele>827.83</ele>
        <time>2018-10-20T16:17:47Z</time>
      </trkpt>
      <trkpt lat="47.81044" lon="7.0374">
        <ele>826.39</ele>
        <time>2018-10-20T16:17:59Z</time>
      </trkpt>
      <trkpt lat="47.8104" lon="7.03753">
        <ele>824.95</ele>
        <time>2018-10-20T16:18:07Z</time>
      </trkpt>
      <trkpt lat="47.81032" lon="7.03767">
        <ele>823.03</ele>
        <time>2018-10-20T16:18:20Z</time>
      </trkpt>
      <trkpt lat="47.81019" lon="7.03775">
        <ele>821.1</ele>
        <time>2018-10-20T16:18:36Z</time>
      </trkpt>
      <trkpt lat="47.81012" lon="7.03776">
        <ele>816.3</ele>
        <time>2018-10-20T16:18:43Z</time>
      </trkpt>
      <trkpt lat="47.81011" lon="7.03776">
        <ele>821.58</ele>
        <time>2018-10-20T16:18:44Z</time>
      </trkpt>
      <trkpt lat="47.8101" lon="7.03776">
        <ele>819.66</ele>
        <time>2018-10-20T16:18:47Z</time>
      </trkpt>
      <trkpt lat="47.80994" lon="7.03776">
        <ele>816.78</ele>
        <time>2018-10-20T16:19:01Z</time>
      </trkpt>
      <trkpt lat="47.80978" lon="7.03768">
        <ele>815.82</ele>
        <time>2018-10-20T16:19:17Z</time>
      </trkpt>
      <trkpt lat="47.80966" lon="7.03769">
        <ele>812.93</ele>
        <time>2018-10-20T16:19:29Z</time>
      </trkpt>
      <trkpt lat="47.80958" lon="7.03767">
        <ele>812.45</ele>
        <time>2018-10-20T16:19:41Z</time>
      </trkpt>
      <trkpt lat="47.80941" lon="7.03771">
        <ele>810.53</ele>
        <time>2018-10-20T16:19:54Z</time>
      </trkpt>
      <trkpt lat="47.80926" lon="7.03777">
        <ele>806.68</ele>
        <time>2018-10-20T16:20:09Z</time>
      </trkpt>
      <trkpt lat="47.80903" lon="7.03798">
        <ele>806.2</ele>
        <time>2018-10-20T16:20:25Z</time>
      </trkpt>
      <trkpt lat="47.8089" lon="7.0381">
        <ele>804.76</ele>
        <time>2018-10-20T16:20:41Z</time>
      </trkpt>
      <trkpt lat="47.8088" lon="7.03826">
        <ele>800.92</ele>
        <time>2018-10-20T16:20:54Z</time>
      </trkpt>
      <trkpt lat="47.80879" lon="7.03828">
        <ele>800.92</ele>
        <time>2018-10-20T16:20:55Z</time>
      </trkpt>
      <trkpt lat="47.80871" lon="7.03853">
        <ele>800.92</ele>
        <time>2018-10-20T16:21:14Z</time>
      </trkpt>
      <trkpt lat="47.80869" lon="7.0386">
        <ele>798.99</ele>
        <time>2018-10-20T16:21:24Z</time>
      </trkpt>
      <trkpt lat="47.80866" lon="7.03867">
        <ele>798.03</ele>
        <time>2018-10-20T16:21:27Z</time>
      </trkpt>
      <trkpt lat="47.80855" lon="7.03895">
        <ele>794.67</ele>
        <time>2018-10-20T16:21:41Z</time>
      </trkpt>
      <trkpt lat="47.8085" lon="7.03921">
        <ele>791.3</ele>
        <time>2018-10-20T16:21:55Z</time>
      </trkpt>
      <trkpt lat="47.80849" lon="7.03958">
        <ele>789.86</ele>
        <time>2018-10-20T16:22:08Z</time>
      </trkpt>
      <trkpt lat="47.80851" lon="7.03969">
        <ele>788.42</ele>
        <time>2018-10-20T16:22:12Z</time>
      </trkpt>
      <trkpt lat="47.80853" lon="7.03983">
        <ele>787.46</ele>
        <time>2018-10-20T16:22:22Z</time>
      </trkpt>
      <trkpt lat="47.80852" lon="7.04007">
        <ele>785.53</ele>
        <time>2018-10-20T16:22:37Z</time>
      </trkpt>
      <trkpt lat="47.80848" lon="7.04014">
        <ele>784.57</ele>
        <time>2018-10-20T16:22:42Z</time>
      </trkpt>
      <trkpt lat="47.80834" lon="7.04031">
        <ele>782.17</ele>
        <time>2018-10-20T16:22:58Z</time>
      </trkpt>
      <trkpt lat="47.80829" lon="7.04033">
        <ele>782.17</ele>
        <time>2018-10-20T16:23:17Z</time>
      </trkpt>
      <trkpt lat="47.80829" lon="7.04034">
        <ele>782.65</ele>
        <time>2018-10-20T16:23:41Z</time>
      </trkpt>
      <trkpt lat="47.80826" lon="7.04037">
        <ele>781.21</ele>
        <time>2018-10-20T16:24:10Z</time>
      </trkpt>
      <trkpt lat="47.80805" lon="7.04058">
        <ele>778.81</ele>
        <time>2018-10-20T16:24:25Z</time>
      </trkpt>
      <trkpt lat="47.80793" lon="7.04065">
        <ele>776.88</ele>
        <time>2018-10-20T16:24:38Z</time>
      </trkpt>
      <trkpt lat="47.80778" lon="7.04079">
        <ele>774</ele>
        <time>2018-10-20T16:24:54Z</time>
      </trkpt>
      <trkpt lat="47.80774" lon="7.04084">
        <ele>773.04</ele>
        <time>2018-10-20T16:24:59Z</time>
      </trkpt>
      <trkpt lat="47.80769" lon="7.04092">
        <ele>771.11</ele>
        <time>2018-10-20T16:25:04Z</time>
      </trkpt>
      <trkpt lat="47.80761" lon="7.04105">
        <ele>770.15</ele>
        <time>2018-10-20T16:25:10Z</time>
      </trkpt>
      <trkpt lat="47.80754" lon="7.04115">
        <ele>769.19</ele>
        <time>2018-10-20T16:25:18Z</time>
      </trkpt>
      <trkpt lat="47.80739" lon="7.04144">
        <ele>766.31</ele>
        <time>2018-10-20T16:25:34Z</time>
      </trkpt>
      <trkpt lat="47.80733" lon="7.04152">
        <ele>766.31</ele>
        <time>2018-10-20T16:25:40Z</time>
      </trkpt>
      <trkpt lat="47.80724" lon="7.0417">
        <ele>762.94</ele>
        <time>2018-10-20T16:25:48Z</time>
      </trkpt>
      <trkpt lat="47.80715" lon="7.0419">
        <ele>761.5</ele>
        <time>2018-10-20T16:25:59Z</time>
      </trkpt>
      <trkpt lat="47.80704" lon="7.04213">
        <ele>759.1</ele>
        <time>2018-10-20T16:26:12Z</time>
      </trkpt>
      <trkpt lat="47.80699" lon="7.04224">
        <ele>754.77</ele>
        <time>2018-10-20T16:26:23Z</time>
      </trkpt>
      <trkpt lat="47.80699" lon="7.04225">
        <ele>755.25</ele>
        <time>2018-10-20T16:26:24Z</time>
      </trkpt>
      <trkpt lat="47.80693" lon="7.04229">
        <ele>753.81</ele>
        <time>2018-10-20T16:26:30Z</time>
      </trkpt>
      <trkpt lat="47.8068" lon="7.04238">
        <ele>751.89</ele>
        <time>2018-10-20T16:26:40Z</time>
      </trkpt>
      <trkpt lat="47.80677" lon="7.0424">
        <ele>751.41</ele>
        <time>2018-10-20T16:26:43Z</time>
      </trkpt>
      <trkpt lat="47.80668" lon="7.04243">
        <ele>749.97</ele>
        <time>2018-10-20T16:26:52Z</time>
      </trkpt>
      <trkpt lat="47.80652" lon="7.04258">
        <ele>748.52</ele>
        <time>2018-10-20T16:27:08Z</time>
      </trkpt>
      <trkpt lat="47.80647" lon="7.04256">
        <ele>748.04</ele>
        <time>2018-10-20T16:27:12Z</time>
      </trkpt>
      <trkpt lat="47.80642" lon="7.04252">
        <ele>748.04</ele>
        <time>2018-10-20T16:27:17Z</time>
      </trkpt>
      <trkpt lat="47.8064" lon="7.04249">
        <ele>748.04</ele>
        <time>2018-10-20T16:27:19Z</time>
      </trkpt>
      <trkpt lat="47.80627" lon="7.04239">
        <ele>747.08</ele>
        <time>2018-10-20T16:27:32Z</time>
      </trkpt>
      <trkpt lat="47.80619" lon="7.0423">
        <ele>747.08</ele>
        <time>2018-10-20T16:27:38Z</time>
      </trkpt>
      <trkpt lat="47.80604" lon="7.04205">
        <ele>745.16</ele>
        <time>2018-10-20T16:27:53Z</time>
      </trkpt>
      <trkpt lat="47.80595" lon="7.04186">
        <ele>743.72</ele>
        <time>2018-10-20T16:28:06Z</time>
      </trkpt>
      <trkpt lat="47.80582" lon="7.04158">
        <ele>742.28</ele>
        <time>2018-10-20T16:28:20Z</time>
      </trkpt>
      <trkpt lat="47.80572" lon="7.04131">
        <ele>740.35</ele>
        <time>2018-10-20T16:28:35Z</time>
      </trkpt>
      <trkpt lat="47.80571" lon="7.04127">
        <ele>739.87</ele>
        <time>2018-10-20T16:28:37Z</time>
      </trkpt>
      <trkpt lat="47.80565" lon="7.04116">
        <ele>739.87</ele>
        <time>2018-10-20T16:28:47Z</time>
      </trkpt>
      <trkpt lat="47.80562" lon="7.04104">
        <ele>738.91</ele>
        <time>2018-10-20T16:28:56Z</time>
      </trkpt>
      <trkpt lat="47.80562" lon="7.04094">
        <ele>738.43</ele>
        <time>2018-10-20T16:29:11Z</time>
      </trkpt>
    </trkseg>
  </trk>
</gpx>